<?xml version="1.0" encoding="UTF-8" standalone="no" ?>
<gpx xmlns="http://www.topografix.com/GPX/1/1" xmlns:xsi="http://www.w3.org/2001/XMLSchema-instance" xsi:schemaLocation="http://www.topografix.com/GPX/1/1 http://www.topografix.com/GPX/1/1/gpx.xsd" version="1.1" creator="VisuGPX - https://www.visugpx.com">
  <metadata>
    <name>marche coucou Leimbach</name>
    <desc><![CDATA[marche Leimbach]]></desc>
  </metadata>
  <trk>
    <name><![CDATA[marche coucou Leimbach_1]]></name>
    <trkseg>
      <trkpt lat="47.79207" lon="7.10622">
        <ele>347.7</ele>
        <time>2015-05-10T07:26:39Z</time>
      </trkpt>
      <trkpt lat="47.79207" lon="7.10622">
        <ele>324</ele>
        <time>2015-05-10T07:26:44Z</time>
      </trkpt>
      <trkpt lat="47.79198" lon="7.10612">
        <ele>352.3</ele>
        <time>2015-05-10T07:26:47Z</time>
      </trkpt>
      <trkpt lat="47.79203" lon="7.10609">
        <ele>354</ele>
        <time>2015-05-10T07:27:12Z</time>
      </trkpt>
      <trkpt lat="47.79207" lon="7.10604">
        <ele>354</ele>
        <time>2015-05-10T07:27:37Z</time>
      </trkpt>
      <trkpt lat="47.79214" lon="7.10594">
        <ele>354</ele>
        <time>2015-05-10T07:27:48Z</time>
      </trkpt>
      <trkpt lat="47.79223" lon="7.1059">
        <ele>354</ele>
        <time>2015-05-10T07:27:55Z</time>
      </trkpt>
      <trkpt lat="47.79233" lon="7.10591">
        <ele>353.5</ele>
        <time>2015-05-10T07:28:04Z</time>
      </trkpt>
      <trkpt lat="47.79238" lon="7.10593">
        <ele>353</ele>
        <time>2015-05-10T07:28:07Z</time>
      </trkpt>
      <trkpt lat="47.79252" lon="7.10596">
        <ele>350.1</ele>
        <time>2015-05-10T07:28:19Z</time>
      </trkpt>
      <trkpt lat="47.79266" lon="7.10599">
        <ele>350</ele>
        <time>2015-05-10T07:28:29Z</time>
      </trkpt>
      <trkpt lat="47.79271" lon="7.10597">
        <ele>349</ele>
        <time>2015-05-10T07:28:34Z</time>
      </trkpt>
      <trkpt lat="47.79272" lon="7.1059">
        <ele>349</ele>
        <time>2015-05-10T07:28:42Z</time>
      </trkpt>
      <trkpt lat="47.79272" lon="7.10597">
        <ele>351</ele>
        <time>2015-05-10T07:29:30Z</time>
      </trkpt>
      <trkpt lat="47.79271" lon="7.10604">
        <ele>351</ele>
        <time>2015-05-10T07:29:38Z</time>
      </trkpt>
      <trkpt lat="47.79267" lon="7.10603">
        <ele>351</ele>
        <time>2015-05-10T07:29:46Z</time>
      </trkpt>
      <trkpt lat="47.79264" lon="7.10611">
        <ele>351</ele>
        <time>2015-05-10T07:29:52Z</time>
      </trkpt>
      <trkpt lat="47.79263" lon="7.10619">
        <ele>351</ele>
        <time>2015-05-10T07:29:56Z</time>
      </trkpt>
      <trkpt lat="47.79265" lon="7.10627">
        <ele>351</ele>
        <time>2015-05-10T07:30:01Z</time>
      </trkpt>
      <trkpt lat="47.79268" lon="7.10633">
        <ele>350.1</ele>
        <time>2015-05-10T07:30:05Z</time>
      </trkpt>
      <trkpt lat="47.79275" lon="7.10653">
        <ele>350</ele>
        <time>2015-05-10T07:30:15Z</time>
      </trkpt>
      <trkpt lat="47.79274" lon="7.10661">
        <ele>350</ele>
        <time>2015-05-10T07:30:18Z</time>
      </trkpt>
      <trkpt lat="47.79265" lon="7.10672">
        <ele>350</ele>
        <time>2015-05-10T07:30:23Z</time>
      </trkpt>
      <trkpt lat="47.79259" lon="7.10674">
        <ele>349.2</ele>
        <time>2015-05-10T07:30:25Z</time>
      </trkpt>
      <trkpt lat="47.79253" lon="7.10673">
        <ele>349.2</ele>
        <time>2015-05-10T07:30:28Z</time>
      </trkpt>
      <trkpt lat="47.79249" lon="7.10669">
        <ele>349</ele>
        <time>2015-05-10T07:30:32Z</time>
      </trkpt>
      <trkpt lat="47.79252" lon="7.10656">
        <ele>349</ele>
        <time>2015-05-10T07:30:37Z</time>
      </trkpt>
      <trkpt lat="47.79256" lon="7.1065">
        <ele>349</ele>
        <time>2015-05-10T07:30:41Z</time>
      </trkpt>
      <trkpt lat="47.79258" lon="7.10644">
        <ele>349</ele>
        <time>2015-05-10T07:30:47Z</time>
      </trkpt>
      <trkpt lat="47.79258" lon="7.10634">
        <ele>348.1</ele>
        <time>2015-05-10T07:30:53Z</time>
      </trkpt>
      <trkpt lat="47.7926" lon="7.10628">
        <ele>348.1</ele>
        <time>2015-05-10T07:30:57Z</time>
      </trkpt>
      <trkpt lat="47.79264" lon="7.10625">
        <ele>348</ele>
        <time>2015-05-10T07:31:02Z</time>
      </trkpt>
      <trkpt lat="47.79267" lon="7.10619">
        <ele>347</ele>
        <time>2015-05-10T07:31:13Z</time>
      </trkpt>
      <trkpt lat="47.79268" lon="7.1061">
        <ele>347</ele>
        <time>2015-05-10T07:31:16Z</time>
      </trkpt>
      <trkpt lat="47.79271" lon="7.10601">
        <ele>347</ele>
        <time>2015-05-10T07:31:20Z</time>
      </trkpt>
      <trkpt lat="47.79271" lon="7.10594">
        <ele>347</ele>
        <time>2015-05-10T07:31:21Z</time>
      </trkpt>
      <trkpt lat="47.7927" lon="7.10585">
        <ele>347</ele>
        <time>2015-05-10T07:31:23Z</time>
      </trkpt>
      <trkpt lat="47.79271" lon="7.10578">
        <ele>347</ele>
        <time>2015-05-10T07:31:27Z</time>
      </trkpt>
      <trkpt lat="47.79277" lon="7.10563">
        <ele>347</ele>
        <time>2015-05-10T07:31:37Z</time>
      </trkpt>
      <trkpt lat="47.79282" lon="7.10558">
        <ele>347</ele>
        <time>2015-05-10T07:31:40Z</time>
      </trkpt>
      <trkpt lat="47.79283" lon="7.10551">
        <ele>347</ele>
        <time>2015-05-10T07:31:44Z</time>
      </trkpt>
      <trkpt lat="47.79281" lon="7.10543">
        <ele>347</ele>
        <time>2015-05-10T07:31:46Z</time>
      </trkpt>
      <trkpt lat="47.79283" lon="7.10535">
        <ele>347</ele>
        <time>2015-05-10T07:31:49Z</time>
      </trkpt>
      <trkpt lat="47.79284" lon="7.1052">
        <ele>347</ele>
        <time>2015-05-10T07:32:00Z</time>
      </trkpt>
      <trkpt lat="47.7928" lon="7.10508">
        <ele>347</ele>
        <time>2015-05-10T07:32:05Z</time>
      </trkpt>
      <trkpt lat="47.79279" lon="7.10493">
        <ele>347.9</ele>
        <time>2015-05-10T07:32:13Z</time>
      </trkpt>
      <trkpt lat="47.79278" lon="7.10484">
        <ele>348</ele>
        <time>2015-05-10T07:32:17Z</time>
      </trkpt>
      <trkpt lat="47.79277" lon="7.10475">
        <ele>348</ele>
        <time>2015-05-10T07:32:23Z</time>
      </trkpt>
      <trkpt lat="47.79275" lon="7.10462">
        <ele>348</ele>
        <time>2015-05-10T07:32:29Z</time>
      </trkpt>
      <trkpt lat="47.79273" lon="7.10456">
        <ele>348</ele>
        <time>2015-05-10T07:32:33Z</time>
      </trkpt>
      <trkpt lat="47.79274" lon="7.10448">
        <ele>348</ele>
        <time>2015-05-10T07:32:40Z</time>
      </trkpt>
      <trkpt lat="47.79273" lon="7.10433">
        <ele>349</ele>
        <time>2015-05-10T07:32:49Z</time>
      </trkpt>
      <trkpt lat="47.79272" lon="7.10425">
        <ele>348.9</ele>
        <time>2015-05-10T07:32:52Z</time>
      </trkpt>
      <trkpt lat="47.79273" lon="7.10417">
        <ele>348.6</ele>
        <time>2015-05-10T07:32:56Z</time>
      </trkpt>
      <trkpt lat="47.79273" lon="7.10404">
        <ele>349.9</ele>
        <time>2015-05-10T07:33:06Z</time>
      </trkpt>
      <trkpt lat="47.79275" lon="7.10397">
        <ele>350</ele>
        <time>2015-05-10T07:33:13Z</time>
      </trkpt>
      <trkpt lat="47.79274" lon="7.1039">
        <ele>350</ele>
        <time>2015-05-10T07:33:16Z</time>
      </trkpt>
      <trkpt lat="47.79275" lon="7.10377">
        <ele>351</ele>
        <time>2015-05-10T07:33:24Z</time>
      </trkpt>
      <trkpt lat="47.79276" lon="7.1037">
        <ele>351</ele>
        <time>2015-05-10T07:33:29Z</time>
      </trkpt>
      <trkpt lat="47.79278" lon="7.10356">
        <ele>350</ele>
        <time>2015-05-10T07:33:37Z</time>
      </trkpt>
      <trkpt lat="47.79277" lon="7.10348">
        <ele>350</ele>
        <time>2015-05-10T07:33:41Z</time>
      </trkpt>
      <trkpt lat="47.79276" lon="7.10341">
        <ele>350</ele>
        <time>2015-05-10T07:33:45Z</time>
      </trkpt>
      <trkpt lat="47.79278" lon="7.10326">
        <ele>349</ele>
        <time>2015-05-10T07:33:55Z</time>
      </trkpt>
      <trkpt lat="47.7928" lon="7.10311">
        <ele>348</ele>
        <time>2015-05-10T07:34:02Z</time>
      </trkpt>
      <trkpt lat="47.79283" lon="7.10306">
        <ele>347</ele>
        <time>2015-05-10T07:34:08Z</time>
      </trkpt>
      <trkpt lat="47.79287" lon="7.10301">
        <ele>347</ele>
        <time>2015-05-10T07:34:13Z</time>
      </trkpt>
      <trkpt lat="47.79286" lon="7.10294">
        <ele>347</ele>
        <time>2015-05-10T07:34:17Z</time>
      </trkpt>
      <trkpt lat="47.7928" lon="7.10278">
        <ele>347</ele>
        <time>2015-05-10T07:34:24Z</time>
      </trkpt>
      <trkpt lat="47.79279" lon="7.10264">
        <ele>347</ele>
        <time>2015-05-10T07:34:30Z</time>
      </trkpt>
      <trkpt lat="47.7928" lon="7.10257">
        <ele>347</ele>
        <time>2015-05-10T07:34:34Z</time>
      </trkpt>
      <trkpt lat="47.79275" lon="7.10255">
        <ele>347</ele>
        <time>2015-05-10T07:34:40Z</time>
      </trkpt>
      <trkpt lat="47.79263" lon="7.1025">
        <ele>347</ele>
        <time>2015-05-10T07:34:48Z</time>
      </trkpt>
      <trkpt lat="47.79259" lon="7.10252">
        <ele>347</ele>
        <time>2015-05-10T07:34:51Z</time>
      </trkpt>
      <trkpt lat="47.79255" lon="7.10256">
        <ele>347</ele>
        <time>2015-05-10T07:34:54Z</time>
      </trkpt>
      <trkpt lat="47.7925" lon="7.10258">
        <ele>347</ele>
        <time>2015-05-10T07:34:58Z</time>
      </trkpt>
      <trkpt lat="47.79245" lon="7.10257">
        <ele>347.9</ele>
        <time>2015-05-10T07:35:02Z</time>
      </trkpt>
      <trkpt lat="47.79236" lon="7.10251">
        <ele>348</ele>
        <time>2015-05-10T07:35:10Z</time>
      </trkpt>
      <trkpt lat="47.79233" lon="7.10247">
        <ele>348</ele>
        <time>2015-05-10T07:35:15Z</time>
      </trkpt>
      <trkpt lat="47.79229" lon="7.10247">
        <ele>348.8</ele>
        <time>2015-05-10T07:35:19Z</time>
      </trkpt>
      <trkpt lat="47.79224" lon="7.10249">
        <ele>349</ele>
        <time>2015-05-10T07:35:24Z</time>
      </trkpt>
      <trkpt lat="47.79215" lon="7.1025">
        <ele>349</ele>
        <time>2015-05-10T07:35:29Z</time>
      </trkpt>
      <trkpt lat="47.79211" lon="7.10248">
        <ele>349</ele>
        <time>2015-05-10T07:35:33Z</time>
      </trkpt>
      <trkpt lat="47.79206" lon="7.10247">
        <ele>349</ele>
        <time>2015-05-10T07:35:37Z</time>
      </trkpt>
      <trkpt lat="47.79201" lon="7.10247">
        <ele>349</ele>
        <time>2015-05-10T07:35:41Z</time>
      </trkpt>
      <trkpt lat="47.7919" lon="7.10244">
        <ele>349</ele>
        <time>2015-05-10T07:35:50Z</time>
      </trkpt>
      <trkpt lat="47.79186" lon="7.10231">
        <ele>348.1</ele>
        <time>2015-05-10T07:36:00Z</time>
      </trkpt>
      <trkpt lat="47.79186" lon="7.10223">
        <ele>348</ele>
        <time>2015-05-10T07:36:02Z</time>
      </trkpt>
      <trkpt lat="47.7919" lon="7.10211">
        <ele>348</ele>
        <time>2015-05-10T07:36:12Z</time>
      </trkpt>
      <trkpt lat="47.79195" lon="7.10206">
        <ele>348</ele>
        <time>2015-05-10T07:36:15Z</time>
      </trkpt>
      <trkpt lat="47.79198" lon="7.102">
        <ele>348</ele>
        <time>2015-05-10T07:36:18Z</time>
      </trkpt>
      <trkpt lat="47.792" lon="7.10193">
        <ele>348</ele>
        <time>2015-05-10T07:36:22Z</time>
      </trkpt>
      <trkpt lat="47.79198" lon="7.10175">
        <ele>347</ele>
        <time>2015-05-10T07:36:33Z</time>
      </trkpt>
      <trkpt lat="47.79199" lon="7.10168">
        <ele>347</ele>
        <time>2015-05-10T07:36:37Z</time>
      </trkpt>
      <trkpt lat="47.79201" lon="7.10162">
        <ele>346</ele>
        <time>2015-05-10T07:36:41Z</time>
      </trkpt>
      <trkpt lat="47.79201" lon="7.10155">
        <ele>346</ele>
        <time>2015-05-10T07:36:45Z</time>
      </trkpt>
      <trkpt lat="47.79202" lon="7.10147">
        <ele>346</ele>
        <time>2015-05-10T07:36:49Z</time>
      </trkpt>
      <trkpt lat="47.79201" lon="7.1014">
        <ele>346</ele>
        <time>2015-05-10T07:36:53Z</time>
      </trkpt>
      <trkpt lat="47.79198" lon="7.10134">
        <ele>346</ele>
        <time>2015-05-10T07:36:58Z</time>
      </trkpt>
      <trkpt lat="47.79199" lon="7.10127">
        <ele>345</ele>
        <time>2015-05-10T07:37:06Z</time>
      </trkpt>
      <trkpt lat="47.79197" lon="7.10116">
        <ele>345</ele>
        <time>2015-05-10T07:37:12Z</time>
      </trkpt>
      <trkpt lat="47.79198" lon="7.10108">
        <ele>345</ele>
        <time>2015-05-10T07:37:17Z</time>
      </trkpt>
      <trkpt lat="47.79203" lon="7.10096">
        <ele>345.8</ele>
        <time>2015-05-10T07:37:25Z</time>
      </trkpt>
      <trkpt lat="47.79209" lon="7.10086">
        <ele>348.4</ele>
        <time>2015-05-10T07:37:35Z</time>
      </trkpt>
      <trkpt lat="47.79209" lon="7.10078">
        <ele>350.9</ele>
        <time>2015-05-10T07:37:38Z</time>
      </trkpt>
      <trkpt lat="47.79214" lon="7.10076">
        <ele>351.9</ele>
        <time>2015-05-10T07:37:41Z</time>
      </trkpt>
      <trkpt lat="47.79225" lon="7.10077">
        <ele>352</ele>
        <time>2015-05-10T07:37:46Z</time>
      </trkpt>
      <trkpt lat="47.7923" lon="7.10076">
        <ele>352</ele>
        <time>2015-05-10T07:37:50Z</time>
      </trkpt>
      <trkpt lat="47.79227" lon="7.10063">
        <ele>352</ele>
        <time>2015-05-10T07:37:55Z</time>
      </trkpt>
      <trkpt lat="47.79222" lon="7.1005">
        <ele>352</ele>
        <time>2015-05-10T07:38:00Z</time>
      </trkpt>
      <trkpt lat="47.79219" lon="7.10036">
        <ele>351.1</ele>
        <time>2015-05-10T07:38:06Z</time>
      </trkpt>
      <trkpt lat="47.79216" lon="7.10029">
        <ele>351.1</ele>
        <time>2015-05-10T07:38:11Z</time>
      </trkpt>
      <trkpt lat="47.79213" lon="7.10023">
        <ele>344.8</ele>
        <time>2015-05-10T07:38:15Z</time>
      </trkpt>
      <trkpt lat="47.79183" lon="7.10013">
        <ele>339.5</ele>
        <time>2015-05-10T07:38:20Z</time>
      </trkpt>
      <trkpt lat="47.79184" lon="7.1002">
        <ele>339</ele>
        <time>2015-05-10T07:38:23Z</time>
      </trkpt>
      <trkpt lat="47.79187" lon="7.10027">
        <ele>339</ele>
        <time>2015-05-10T07:38:25Z</time>
      </trkpt>
      <trkpt lat="47.79191" lon="7.10032">
        <ele>339</ele>
        <time>2015-05-10T07:38:35Z</time>
      </trkpt>
      <trkpt lat="47.79184" lon="7.10032">
        <ele>339</ele>
        <time>2015-05-10T07:38:43Z</time>
      </trkpt>
      <trkpt lat="47.79179" lon="7.10034">
        <ele>339</ele>
        <time>2015-05-10T07:38:47Z</time>
      </trkpt>
      <trkpt lat="47.79176" lon="7.10039">
        <ele>341.6</ele>
        <time>2015-05-10T07:38:51Z</time>
      </trkpt>
      <trkpt lat="47.79172" lon="7.10058">
        <ele>345.6</ele>
        <time>2015-05-10T07:39:01Z</time>
      </trkpt>
      <trkpt lat="47.79164" lon="7.10066">
        <ele>349.7</ele>
        <time>2015-05-10T07:39:10Z</time>
      </trkpt>
      <trkpt lat="47.79157" lon="7.10076">
        <ele>351.9</ele>
        <time>2015-05-10T07:39:18Z</time>
      </trkpt>
      <trkpt lat="47.79156" lon="7.1009">
        <ele>354.9</ele>
        <time>2015-05-10T07:39:30Z</time>
      </trkpt>
      <trkpt lat="47.79153" lon="7.10095">
        <ele>355</ele>
        <time>2015-05-10T07:39:36Z</time>
      </trkpt>
      <trkpt lat="47.79148" lon="7.10097">
        <ele>355</ele>
        <time>2015-05-10T07:39:39Z</time>
      </trkpt>
      <trkpt lat="47.79143" lon="7.10102">
        <ele>355</ele>
        <time>2015-05-10T07:39:44Z</time>
      </trkpt>
      <trkpt lat="47.79137" lon="7.10104">
        <ele>355</ele>
        <time>2015-05-10T07:39:58Z</time>
      </trkpt>
      <trkpt lat="47.79133" lon="7.1011">
        <ele>355</ele>
        <time>2015-05-10T07:40:03Z</time>
      </trkpt>
      <trkpt lat="47.79127" lon="7.10122">
        <ele>355</ele>
        <time>2015-05-10T07:40:12Z</time>
      </trkpt>
      <trkpt lat="47.79123" lon="7.10127">
        <ele>355</ele>
        <time>2015-05-10T07:40:17Z</time>
      </trkpt>
      <trkpt lat="47.79114" lon="7.10143">
        <ele>356.9</ele>
        <time>2015-05-10T07:40:30Z</time>
      </trkpt>
      <trkpt lat="47.79111" lon="7.10148">
        <ele>358</ele>
        <time>2015-05-10T07:40:37Z</time>
      </trkpt>
      <trkpt lat="47.79106" lon="7.10152">
        <ele>360</ele>
        <time>2015-05-10T07:40:42Z</time>
      </trkpt>
      <trkpt lat="47.79101" lon="7.10162">
        <ele>362</ele>
        <time>2015-05-10T07:40:53Z</time>
      </trkpt>
      <trkpt lat="47.79095" lon="7.10161">
        <ele>363.5</ele>
        <time>2015-05-10T07:40:59Z</time>
      </trkpt>
      <trkpt lat="47.7909" lon="7.10158">
        <ele>365.5</ele>
        <time>2015-05-10T07:41:03Z</time>
      </trkpt>
      <trkpt lat="47.79086" lon="7.10161">
        <ele>366</ele>
        <time>2015-05-10T07:41:09Z</time>
      </trkpt>
      <trkpt lat="47.79087" lon="7.10168">
        <ele>366.7</ele>
        <time>2015-05-10T07:41:15Z</time>
      </trkpt>
      <trkpt lat="47.79085" lon="7.10174">
        <ele>366.9</ele>
        <time>2015-05-10T07:41:20Z</time>
      </trkpt>
      <trkpt lat="47.7908" lon="7.10177">
        <ele>367.7</ele>
        <time>2015-05-10T07:41:28Z</time>
      </trkpt>
      <trkpt lat="47.79076" lon="7.10189">
        <ele>368</ele>
        <time>2015-05-10T07:41:37Z</time>
      </trkpt>
      <trkpt lat="47.79067" lon="7.10191">
        <ele>370.7</ele>
        <time>2015-05-10T07:41:45Z</time>
      </trkpt>
      <trkpt lat="47.79066" lon="7.10184">
        <ele>372</ele>
        <time>2015-05-10T07:41:55Z</time>
      </trkpt>
      <trkpt lat="47.79066" lon="7.10177">
        <ele>372</ele>
        <time>2015-05-10T07:42:04Z</time>
      </trkpt>
      <trkpt lat="47.79067" lon="7.10164">
        <ele>373</ele>
        <time>2015-05-10T07:42:21Z</time>
      </trkpt>
      <trkpt lat="47.79062" lon="7.10152">
        <ele>374</ele>
        <time>2015-05-10T07:42:28Z</time>
      </trkpt>
      <trkpt lat="47.79066" lon="7.1014">
        <ele>373</ele>
        <time>2015-05-10T07:42:43Z</time>
      </trkpt>
      <trkpt lat="47.79063" lon="7.10133">
        <ele>373</ele>
        <time>2015-05-10T07:42:47Z</time>
      </trkpt>
      <trkpt lat="47.79057" lon="7.10124">
        <ele>373</ele>
        <time>2015-05-10T07:42:52Z</time>
      </trkpt>
      <trkpt lat="47.79049" lon="7.10105">
        <ele>373</ele>
        <time>2015-05-10T07:43:03Z</time>
      </trkpt>
      <trkpt lat="47.79049" lon="7.10098">
        <ele>372</ele>
        <time>2015-05-10T07:43:09Z</time>
      </trkpt>
      <trkpt lat="47.79045" lon="7.10093">
        <ele>372</ele>
        <time>2015-05-10T07:43:14Z</time>
      </trkpt>
      <trkpt lat="47.79043" lon="7.10086">
        <ele>371.3</ele>
        <time>2015-05-10T07:43:18Z</time>
      </trkpt>
      <trkpt lat="47.79043" lon="7.10078">
        <ele>371</ele>
        <time>2015-05-10T07:43:24Z</time>
      </trkpt>
      <trkpt lat="47.79042" lon="7.10067">
        <ele>369</ele>
        <time>2015-05-10T07:43:34Z</time>
      </trkpt>
      <trkpt lat="47.79047" lon="7.10054">
        <ele>369</ele>
        <time>2015-05-10T07:43:48Z</time>
      </trkpt>
      <trkpt lat="47.79052" lon="7.10048">
        <ele>368.1</ele>
        <time>2015-05-10T07:43:51Z</time>
      </trkpt>
      <trkpt lat="47.79053" lon="7.10042">
        <ele>368</ele>
        <time>2015-05-10T07:43:55Z</time>
      </trkpt>
      <trkpt lat="47.79046" lon="7.10034">
        <ele>367.1</ele>
        <time>2015-05-10T07:44:03Z</time>
      </trkpt>
      <trkpt lat="47.79042" lon="7.10015">
        <ele>366.1</ele>
        <time>2015-05-10T07:44:15Z</time>
      </trkpt>
      <trkpt lat="47.7904" lon="7.10009">
        <ele>366</ele>
        <time>2015-05-10T07:44:21Z</time>
      </trkpt>
      <trkpt lat="47.79042" lon="7.1">
        <ele>366.2</ele>
        <time>2015-05-10T07:44:30Z</time>
      </trkpt>
      <trkpt lat="47.79043" lon="7.09985">
        <ele>365</ele>
        <time>2015-05-10T07:44:41Z</time>
      </trkpt>
      <trkpt lat="47.79047" lon="7.09978">
        <ele>365</ele>
        <time>2015-05-10T07:44:45Z</time>
      </trkpt>
      <trkpt lat="47.7905" lon="7.09965">
        <ele>367</ele>
        <time>2015-05-10T07:44:55Z</time>
      </trkpt>
      <trkpt lat="47.7905" lon="7.09958">
        <ele>367</ele>
        <time>2015-05-10T07:45:01Z</time>
      </trkpt>
      <trkpt lat="47.79048" lon="7.0995">
        <ele>367.5</ele>
        <time>2015-05-10T07:45:05Z</time>
      </trkpt>
      <trkpt lat="47.79051" lon="7.09937">
        <ele>369</ele>
        <time>2015-05-10T07:45:16Z</time>
      </trkpt>
      <trkpt lat="47.7905" lon="7.09921">
        <ele>369</ele>
        <time>2015-05-10T07:45:26Z</time>
      </trkpt>
      <trkpt lat="47.79049" lon="7.09905">
        <ele>369.8</ele>
        <time>2015-05-10T07:45:34Z</time>
      </trkpt>
      <trkpt lat="47.79051" lon="7.09889">
        <ele>371</ele>
        <time>2015-05-10T07:45:42Z</time>
      </trkpt>
      <trkpt lat="47.79042" lon="7.09886">
        <ele>376.1</ele>
        <time>2015-05-10T07:45:54Z</time>
      </trkpt>
      <trkpt lat="47.79037" lon="7.09884">
        <ele>378.5</ele>
        <time>2015-05-10T07:46:01Z</time>
      </trkpt>
      <trkpt lat="47.79031" lon="7.09873">
        <ele>383.6</ele>
        <time>2015-05-10T07:46:10Z</time>
      </trkpt>
      <trkpt lat="47.79032" lon="7.09864">
        <ele>384.5</ele>
        <time>2015-05-10T07:46:16Z</time>
      </trkpt>
      <trkpt lat="47.7903" lon="7.09856">
        <ele>384.7</ele>
        <time>2015-05-10T07:46:21Z</time>
      </trkpt>
      <trkpt lat="47.79028" lon="7.0985">
        <ele>387.2</ele>
        <time>2015-05-10T07:46:26Z</time>
      </trkpt>
      <trkpt lat="47.79029" lon="7.09835">
        <ele>389.9</ele>
        <time>2015-05-10T07:46:37Z</time>
      </trkpt>
      <trkpt lat="47.79031" lon="7.09822">
        <ele>391</ele>
        <time>2015-05-10T07:46:48Z</time>
      </trkpt>
      <trkpt lat="47.79026" lon="7.0981">
        <ele>393</ele>
        <time>2015-05-10T07:46:57Z</time>
      </trkpt>
      <trkpt lat="47.79027" lon="7.09799">
        <ele>393</ele>
        <time>2015-05-10T07:47:10Z</time>
      </trkpt>
      <trkpt lat="47.79024" lon="7.09785">
        <ele>394</ele>
        <time>2015-05-10T07:47:20Z</time>
      </trkpt>
      <trkpt lat="47.79021" lon="7.09771">
        <ele>394</ele>
        <time>2015-05-10T07:47:32Z</time>
      </trkpt>
      <trkpt lat="47.7902" lon="7.09765">
        <ele>394</ele>
        <time>2015-05-10T07:47:36Z</time>
      </trkpt>
      <trkpt lat="47.79019" lon="7.09758">
        <ele>394</ele>
        <time>2015-05-10T07:47:40Z</time>
      </trkpt>
      <trkpt lat="47.79017" lon="7.09744">
        <ele>395</ele>
        <time>2015-05-10T07:47:49Z</time>
      </trkpt>
      <trkpt lat="47.79018" lon="7.09737">
        <ele>395</ele>
        <time>2015-05-10T07:47:54Z</time>
      </trkpt>
      <trkpt lat="47.79021" lon="7.09731">
        <ele>395.5</ele>
        <time>2015-05-10T07:48:00Z</time>
      </trkpt>
      <trkpt lat="47.7902" lon="7.09724">
        <ele>396</ele>
        <time>2015-05-10T07:48:07Z</time>
      </trkpt>
      <trkpt lat="47.79015" lon="7.09721">
        <ele>395.1</ele>
        <time>2015-05-10T07:48:11Z</time>
      </trkpt>
      <trkpt lat="47.79013" lon="7.09715">
        <ele>395.1</ele>
        <time>2015-05-10T07:48:13Z</time>
      </trkpt>
      <trkpt lat="47.79013" lon="7.09708">
        <ele>395</ele>
        <time>2015-05-10T07:48:16Z</time>
      </trkpt>
      <trkpt lat="47.79014" lon="7.09701">
        <ele>395</ele>
        <time>2015-05-10T07:48:21Z</time>
      </trkpt>
      <trkpt lat="47.7902" lon="7.09691">
        <ele>395</ele>
        <time>2015-05-10T07:48:32Z</time>
      </trkpt>
      <trkpt lat="47.7902" lon="7.09682">
        <ele>395</ele>
        <time>2015-05-10T07:48:34Z</time>
      </trkpt>
      <trkpt lat="47.79023" lon="7.09676">
        <ele>394.2</ele>
        <time>2015-05-10T07:48:40Z</time>
      </trkpt>
      <trkpt lat="47.79025" lon="7.09662">
        <ele>391</ele>
        <time>2015-05-10T07:48:50Z</time>
      </trkpt>
      <trkpt lat="47.79027" lon="7.09656">
        <ele>390</ele>
        <time>2015-05-10T07:48:57Z</time>
      </trkpt>
      <trkpt lat="47.79025" lon="7.0965">
        <ele>390</ele>
        <time>2015-05-10T07:49:01Z</time>
      </trkpt>
      <trkpt lat="47.79021" lon="7.09644">
        <ele>390</ele>
        <time>2015-05-10T07:49:05Z</time>
      </trkpt>
      <trkpt lat="47.7902" lon="7.09628">
        <ele>388.1</ele>
        <time>2015-05-10T07:49:14Z</time>
      </trkpt>
      <trkpt lat="47.79021" lon="7.09614">
        <ele>385.1</ele>
        <time>2015-05-10T07:49:25Z</time>
      </trkpt>
      <trkpt lat="47.79019" lon="7.09607">
        <ele>385</ele>
        <time>2015-05-10T07:49:29Z</time>
      </trkpt>
      <trkpt lat="47.79022" lon="7.096">
        <ele>385</ele>
        <time>2015-05-10T07:49:34Z</time>
      </trkpt>
      <trkpt lat="47.79023" lon="7.09582">
        <ele>385</ele>
        <time>2015-05-10T07:49:47Z</time>
      </trkpt>
      <trkpt lat="47.79028" lon="7.0958">
        <ele>385.8</ele>
        <time>2015-05-10T07:49:51Z</time>
      </trkpt>
      <trkpt lat="47.79023" lon="7.09567">
        <ele>388.5</ele>
        <time>2015-05-10T07:49:58Z</time>
      </trkpt>
      <trkpt lat="47.79026" lon="7.09562">
        <ele>388.7</ele>
        <time>2015-05-10T07:50:03Z</time>
      </trkpt>
      <trkpt lat="47.7903" lon="7.09557">
        <ele>389</ele>
        <time>2015-05-10T07:50:07Z</time>
      </trkpt>
      <trkpt lat="47.79032" lon="7.09544">
        <ele>389</ele>
        <time>2015-05-10T07:50:15Z</time>
      </trkpt>
      <trkpt lat="47.79031" lon="7.09521">
        <ele>389</ele>
        <time>2015-05-10T07:50:24Z</time>
      </trkpt>
      <trkpt lat="47.79032" lon="7.09507">
        <ele>388.5</ele>
        <time>2015-05-10T07:50:35Z</time>
      </trkpt>
      <trkpt lat="47.79027" lon="7.09489">
        <ele>388</ele>
        <time>2015-05-10T07:50:44Z</time>
      </trkpt>
      <trkpt lat="47.79027" lon="7.09481">
        <ele>388.5</ele>
        <time>2015-05-10T07:50:49Z</time>
      </trkpt>
      <trkpt lat="47.79028" lon="7.09475">
        <ele>389</ele>
        <time>2015-05-10T07:50:54Z</time>
      </trkpt>
      <trkpt lat="47.79024" lon="7.09462">
        <ele>389</ele>
        <time>2015-05-10T07:51:01Z</time>
      </trkpt>
      <trkpt lat="47.79023" lon="7.09448">
        <ele>389.8</ele>
        <time>2015-05-10T07:51:07Z</time>
      </trkpt>
      <trkpt lat="47.79026" lon="7.09441">
        <ele>391.5</ele>
        <time>2015-05-10T07:51:12Z</time>
      </trkpt>
      <trkpt lat="47.79026" lon="7.09434">
        <ele>392.7</ele>
        <time>2015-05-10T07:51:16Z</time>
      </trkpt>
      <trkpt lat="47.79026" lon="7.09426">
        <ele>393</ele>
        <time>2015-05-10T07:51:20Z</time>
      </trkpt>
      <trkpt lat="47.7902" lon="7.09407">
        <ele>399.3</ele>
        <time>2015-05-10T07:51:29Z</time>
      </trkpt>
      <trkpt lat="47.79018" lon="7.09401">
        <ele>401.5</ele>
        <time>2015-05-10T07:51:38Z</time>
      </trkpt>
      <trkpt lat="47.79013" lon="7.09389">
        <ele>403</ele>
        <time>2015-05-10T07:51:47Z</time>
      </trkpt>
      <trkpt lat="47.79011" lon="7.09369">
        <ele>403</ele>
        <time>2015-05-10T07:51:54Z</time>
      </trkpt>
      <trkpt lat="47.79012" lon="7.09347">
        <ele>403</ele>
        <time>2015-05-10T07:52:05Z</time>
      </trkpt>
      <trkpt lat="47.79011" lon="7.09339">
        <ele>403</ele>
        <time>2015-05-10T07:52:08Z</time>
      </trkpt>
      <trkpt lat="47.79014" lon="7.09333">
        <ele>403</ele>
        <time>2015-05-10T07:52:12Z</time>
      </trkpt>
      <trkpt lat="47.79019" lon="7.09331">
        <ele>402.5</ele>
        <time>2015-05-10T07:52:16Z</time>
      </trkpt>
      <trkpt lat="47.79021" lon="7.09324">
        <ele>401.1</ele>
        <time>2015-05-10T07:52:21Z</time>
      </trkpt>
      <trkpt lat="47.79026" lon="7.09321">
        <ele>401</ele>
        <time>2015-05-10T07:52:25Z</time>
      </trkpt>
      <trkpt lat="47.79032" lon="7.0932">
        <ele>399.6</ele>
        <time>2015-05-10T07:52:28Z</time>
      </trkpt>
      <trkpt lat="47.7903" lon="7.09306">
        <ele>398.3</ele>
        <time>2015-05-10T07:52:35Z</time>
      </trkpt>
      <trkpt lat="47.79026" lon="7.09289">
        <ele>398</ele>
        <time>2015-05-10T07:52:40Z</time>
      </trkpt>
      <trkpt lat="47.79028" lon="7.09282">
        <ele>397.3</ele>
        <time>2015-05-10T07:52:44Z</time>
      </trkpt>
      <trkpt lat="47.79029" lon="7.09269">
        <ele>397</ele>
        <time>2015-05-10T07:52:52Z</time>
      </trkpt>
      <trkpt lat="47.79027" lon="7.09259">
        <ele>397</ele>
        <time>2015-05-10T07:52:56Z</time>
      </trkpt>
      <trkpt lat="47.79027" lon="7.09252">
        <ele>397</ele>
        <time>2015-05-10T07:53:00Z</time>
      </trkpt>
      <trkpt lat="47.79029" lon="7.09244">
        <ele>398</ele>
        <time>2015-05-10T07:53:04Z</time>
      </trkpt>
      <trkpt lat="47.7903" lon="7.09236">
        <ele>398</ele>
        <time>2015-05-10T07:53:08Z</time>
      </trkpt>
      <trkpt lat="47.79035" lon="7.09232">
        <ele>399.9</ele>
        <time>2015-05-10T07:53:15Z</time>
      </trkpt>
      <trkpt lat="47.79034" lon="7.09225">
        <ele>399.9</ele>
        <time>2015-05-10T07:53:18Z</time>
      </trkpt>
      <trkpt lat="47.79032" lon="7.09212">
        <ele>400.7</ele>
        <time>2015-05-10T07:53:25Z</time>
      </trkpt>
      <trkpt lat="47.79032" lon="7.09204">
        <ele>400.7</ele>
        <time>2015-05-10T07:53:29Z</time>
      </trkpt>
      <trkpt lat="47.79035" lon="7.09188">
        <ele>402.9</ele>
        <time>2015-05-10T07:53:37Z</time>
      </trkpt>
      <trkpt lat="47.79043" lon="7.09181">
        <ele>403.9</ele>
        <time>2015-05-10T07:53:41Z</time>
      </trkpt>
      <trkpt lat="47.79047" lon="7.09177">
        <ele>404</ele>
        <time>2015-05-10T07:53:43Z</time>
      </trkpt>
      <trkpt lat="47.79047" lon="7.09168">
        <ele>404</ele>
        <time>2015-05-10T07:53:51Z</time>
      </trkpt>
      <trkpt lat="47.79045" lon="7.09161">
        <ele>404</ele>
        <time>2015-05-10T07:53:58Z</time>
      </trkpt>
      <trkpt lat="47.79045" lon="7.09151">
        <ele>404</ele>
        <time>2015-05-10T07:54:06Z</time>
      </trkpt>
      <trkpt lat="47.79047" lon="7.09137">
        <ele>403.1</ele>
        <time>2015-05-10T07:54:15Z</time>
      </trkpt>
      <trkpt lat="47.79045" lon="7.09117">
        <ele>403</ele>
        <time>2015-05-10T07:54:23Z</time>
      </trkpt>
      <trkpt lat="47.79043" lon="7.09096">
        <ele>402.1</ele>
        <time>2015-05-10T07:54:31Z</time>
      </trkpt>
      <trkpt lat="47.79043" lon="7.09083">
        <ele>402</ele>
        <time>2015-05-10T07:54:40Z</time>
      </trkpt>
      <trkpt lat="47.7904" lon="7.09074">
        <ele>402</ele>
        <time>2015-05-10T07:54:45Z</time>
      </trkpt>
      <trkpt lat="47.79043" lon="7.0906">
        <ele>402.9</ele>
        <time>2015-05-10T07:54:52Z</time>
      </trkpt>
      <trkpt lat="47.7904" lon="7.09053">
        <ele>403</ele>
        <time>2015-05-10T07:54:56Z</time>
      </trkpt>
      <trkpt lat="47.79041" lon="7.09046">
        <ele>403</ele>
        <time>2015-05-10T07:55:00Z</time>
      </trkpt>
      <trkpt lat="47.79042" lon="7.09039">
        <ele>403.8</ele>
        <time>2015-05-10T07:55:05Z</time>
      </trkpt>
      <trkpt lat="47.79043" lon="7.09032">
        <ele>404</ele>
        <time>2015-05-10T07:55:10Z</time>
      </trkpt>
      <trkpt lat="47.79039" lon="7.09023">
        <ele>405</ele>
        <time>2015-05-10T07:55:17Z</time>
      </trkpt>
      <trkpt lat="47.79034" lon="7.09027">
        <ele>405</ele>
        <time>2015-05-10T07:55:21Z</time>
      </trkpt>
      <trkpt lat="47.79025" lon="7.09028">
        <ele>406</ele>
        <time>2015-05-10T07:55:29Z</time>
      </trkpt>
      <trkpt lat="47.79028" lon="7.09035">
        <ele>406.9</ele>
        <time>2015-05-10T07:55:36Z</time>
      </trkpt>
      <trkpt lat="47.79021" lon="7.09041">
        <ele>408.9</ele>
        <time>2015-05-10T07:55:46Z</time>
      </trkpt>
      <trkpt lat="47.79015" lon="7.09041">
        <ele>408.9</ele>
        <time>2015-05-10T07:55:51Z</time>
      </trkpt>
      <trkpt lat="47.79006" lon="7.0904">
        <ele>409.9</ele>
        <time>2015-05-10T07:56:02Z</time>
      </trkpt>
      <trkpt lat="47.79002" lon="7.09046">
        <ele>410</ele>
        <time>2015-05-10T07:56:08Z</time>
      </trkpt>
      <trkpt lat="47.79001" lon="7.09053">
        <ele>411</ele>
        <time>2015-05-10T07:56:13Z</time>
      </trkpt>
      <trkpt lat="47.78997" lon="7.09059">
        <ele>411</ele>
        <time>2015-05-10T07:56:19Z</time>
      </trkpt>
      <trkpt lat="47.78993" lon="7.09061">
        <ele>411</ele>
        <time>2015-05-10T07:56:22Z</time>
      </trkpt>
      <trkpt lat="47.78978" lon="7.09066">
        <ele>411</ele>
        <time>2015-05-10T07:56:29Z</time>
      </trkpt>
      <trkpt lat="47.78974" lon="7.09067">
        <ele>411</ele>
        <time>2015-05-10T07:56:32Z</time>
      </trkpt>
      <trkpt lat="47.78965" lon="7.09072">
        <ele>411</ele>
        <time>2015-05-10T07:56:40Z</time>
      </trkpt>
      <trkpt lat="47.78956" lon="7.09071">
        <ele>411</ele>
        <time>2015-05-10T07:56:46Z</time>
      </trkpt>
      <trkpt lat="47.78947" lon="7.09077">
        <ele>411.5</ele>
        <time>2015-05-10T07:56:54Z</time>
      </trkpt>
      <trkpt lat="47.78942" lon="7.09087">
        <ele>415.7</ele>
        <time>2015-05-10T07:57:02Z</time>
      </trkpt>
      <trkpt lat="47.78938" lon="7.0909">
        <ele>415.7</ele>
        <time>2015-05-10T07:57:06Z</time>
      </trkpt>
      <trkpt lat="47.78929" lon="7.09094">
        <ele>417.9</ele>
        <time>2015-05-10T07:57:13Z</time>
      </trkpt>
      <trkpt lat="47.78921" lon="7.09091">
        <ele>418</ele>
        <time>2015-05-10T07:57:20Z</time>
      </trkpt>
      <trkpt lat="47.78916" lon="7.09095">
        <ele>418</ele>
        <time>2015-05-10T07:57:26Z</time>
      </trkpt>
      <trkpt lat="47.78911" lon="7.09092">
        <ele>418</ele>
        <time>2015-05-10T07:57:30Z</time>
      </trkpt>
      <trkpt lat="47.78906" lon="7.09091">
        <ele>418</ele>
        <time>2015-05-10T07:57:33Z</time>
      </trkpt>
      <trkpt lat="47.78893" lon="7.09093">
        <ele>418</ele>
        <time>2015-05-10T07:57:44Z</time>
      </trkpt>
      <trkpt lat="47.78889" lon="7.09087">
        <ele>416.8</ele>
        <time>2015-05-10T07:57:50Z</time>
      </trkpt>
      <trkpt lat="47.7888" lon="7.09079">
        <ele>415.3</ele>
        <time>2015-05-10T07:57:57Z</time>
      </trkpt>
      <trkpt lat="47.78875" lon="7.09078">
        <ele>415</ele>
        <time>2015-05-10T07:58:00Z</time>
      </trkpt>
      <trkpt lat="47.7887" lon="7.09081">
        <ele>415</ele>
        <time>2015-05-10T07:58:04Z</time>
      </trkpt>
      <trkpt lat="47.78867" lon="7.09087">
        <ele>415</ele>
        <time>2015-05-10T07:58:09Z</time>
      </trkpt>
      <trkpt lat="47.78868" lon="7.09094">
        <ele>414.2</ele>
        <time>2015-05-10T07:58:18Z</time>
      </trkpt>
      <trkpt lat="47.7886" lon="7.09102">
        <ele>414.1</ele>
        <time>2015-05-10T07:58:31Z</time>
      </trkpt>
      <trkpt lat="47.78855" lon="7.09112">
        <ele>414</ele>
        <time>2015-05-10T07:58:39Z</time>
      </trkpt>
      <trkpt lat="47.78852" lon="7.09118">
        <ele>413</ele>
        <time>2015-05-10T07:58:47Z</time>
      </trkpt>
      <trkpt lat="47.78843" lon="7.09119">
        <ele>413</ele>
        <time>2015-05-10T07:58:55Z</time>
      </trkpt>
      <trkpt lat="47.78839" lon="7.09125">
        <ele>413</ele>
        <time>2015-05-10T07:59:01Z</time>
      </trkpt>
      <trkpt lat="47.78833" lon="7.09135">
        <ele>413</ele>
        <time>2015-05-10T07:59:09Z</time>
      </trkpt>
      <trkpt lat="47.78824" lon="7.09143">
        <ele>413.8</ele>
        <time>2015-05-10T07:59:21Z</time>
      </trkpt>
      <trkpt lat="47.78818" lon="7.09145">
        <ele>414</ele>
        <time>2015-05-10T07:59:25Z</time>
      </trkpt>
      <trkpt lat="47.78812" lon="7.09143">
        <ele>414</ele>
        <time>2015-05-10T07:59:28Z</time>
      </trkpt>
      <trkpt lat="47.78803" lon="7.09143">
        <ele>416.6</ele>
        <time>2015-05-10T07:59:36Z</time>
      </trkpt>
      <trkpt lat="47.78798" lon="7.09141">
        <ele>416.6</ele>
        <time>2015-05-10T07:59:39Z</time>
      </trkpt>
      <trkpt lat="47.78788" lon="7.09138">
        <ele>418.8</ele>
        <time>2015-05-10T07:59:44Z</time>
      </trkpt>
      <trkpt lat="47.7878" lon="7.09132">
        <ele>419</ele>
        <time>2015-05-10T07:59:50Z</time>
      </trkpt>
      <trkpt lat="47.78777" lon="7.09125">
        <ele>419</ele>
        <time>2015-05-10T07:59:53Z</time>
      </trkpt>
      <trkpt lat="47.78775" lon="7.09119">
        <ele>419</ele>
        <time>2015-05-10T07:59:58Z</time>
      </trkpt>
      <trkpt lat="47.78771" lon="7.09115">
        <ele>419</ele>
        <time>2015-05-10T08:00:05Z</time>
      </trkpt>
      <trkpt lat="47.78766" lon="7.09118">
        <ele>419</ele>
        <time>2015-05-10T08:00:12Z</time>
      </trkpt>
      <trkpt lat="47.78762" lon="7.09114">
        <ele>419</ele>
        <time>2015-05-10T08:00:17Z</time>
      </trkpt>
      <trkpt lat="47.78759" lon="7.09107">
        <ele>419</ele>
        <time>2015-05-10T08:00:25Z</time>
      </trkpt>
      <trkpt lat="47.78755" lon="7.09103">
        <ele>418</ele>
        <time>2015-05-10T08:00:29Z</time>
      </trkpt>
      <trkpt lat="47.78748" lon="7.09093">
        <ele>418</ele>
        <time>2015-05-10T08:00:39Z</time>
      </trkpt>
      <trkpt lat="47.78742" lon="7.09096">
        <ele>418</ele>
        <time>2015-05-10T08:00:42Z</time>
      </trkpt>
      <trkpt lat="47.78737" lon="7.09094">
        <ele>418</ele>
        <time>2015-05-10T08:00:46Z</time>
      </trkpt>
      <trkpt lat="47.78732" lon="7.09088">
        <ele>418</ele>
        <time>2015-05-10T08:00:51Z</time>
      </trkpt>
      <trkpt lat="47.78724" lon="7.09081">
        <ele>421</ele>
        <time>2015-05-10T08:01:01Z</time>
      </trkpt>
      <trkpt lat="47.78712" lon="7.09072">
        <ele>421.9</ele>
        <time>2015-05-10T08:01:10Z</time>
      </trkpt>
      <trkpt lat="47.78703" lon="7.09056">
        <ele>423</ele>
        <time>2015-05-10T08:01:18Z</time>
      </trkpt>
      <trkpt lat="47.78697" lon="7.0906">
        <ele>423</ele>
        <time>2015-05-10T08:01:38Z</time>
      </trkpt>
      <trkpt lat="47.78687" lon="7.09057">
        <ele>420.2</ele>
        <time>2015-05-10T08:01:46Z</time>
      </trkpt>
      <trkpt lat="47.78682" lon="7.09058">
        <ele>419.1</ele>
        <time>2015-05-10T08:01:52Z</time>
      </trkpt>
      <trkpt lat="47.78677" lon="7.09057">
        <ele>419.1</ele>
        <time>2015-05-10T08:01:55Z</time>
      </trkpt>
      <trkpt lat="47.78671" lon="7.09053">
        <ele>419</ele>
        <time>2015-05-10T08:02:01Z</time>
      </trkpt>
      <trkpt lat="47.7866" lon="7.09059">
        <ele>418</ele>
        <time>2015-05-10T08:02:14Z</time>
      </trkpt>
      <trkpt lat="47.7865" lon="7.09058">
        <ele>418</ele>
        <time>2015-05-10T08:02:21Z</time>
      </trkpt>
      <trkpt lat="47.78641" lon="7.09055">
        <ele>418.8</ele>
        <time>2015-05-10T08:02:31Z</time>
      </trkpt>
      <trkpt lat="47.78636" lon="7.09052">
        <ele>418.1</ele>
        <time>2015-05-10T08:02:36Z</time>
      </trkpt>
      <trkpt lat="47.78631" lon="7.09052">
        <ele>418</ele>
        <time>2015-05-10T08:02:40Z</time>
      </trkpt>
      <trkpt lat="47.78626" lon="7.09054">
        <ele>418</ele>
        <time>2015-05-10T08:02:43Z</time>
      </trkpt>
      <trkpt lat="47.78617" lon="7.0906">
        <ele>418</ele>
        <time>2015-05-10T08:02:50Z</time>
      </trkpt>
      <trkpt lat="47.78612" lon="7.09064">
        <ele>418.9</ele>
        <time>2015-05-10T08:02:53Z</time>
      </trkpt>
      <trkpt lat="47.78607" lon="7.09068">
        <ele>419</ele>
        <time>2015-05-10T08:02:58Z</time>
      </trkpt>
      <trkpt lat="47.78603" lon="7.09072">
        <ele>419.7</ele>
        <time>2015-05-10T08:03:02Z</time>
      </trkpt>
      <trkpt lat="47.78596" lon="7.09075">
        <ele>420</ele>
        <time>2015-05-10T08:03:09Z</time>
      </trkpt>
      <trkpt lat="47.78591" lon="7.09073">
        <ele>420</ele>
        <time>2015-05-10T08:03:14Z</time>
      </trkpt>
      <trkpt lat="47.78581" lon="7.09075">
        <ele>420</ele>
        <time>2015-05-10T08:03:21Z</time>
      </trkpt>
      <trkpt lat="47.78568" lon="7.09078">
        <ele>428.1</ele>
        <time>2015-05-10T08:03:32Z</time>
      </trkpt>
      <trkpt lat="47.78565" lon="7.09073">
        <ele>430.3</ele>
        <time>2015-05-10T08:03:37Z</time>
      </trkpt>
      <trkpt lat="47.78569" lon="7.0906">
        <ele>436.1</ele>
        <time>2015-05-10T08:03:43Z</time>
      </trkpt>
      <trkpt lat="47.78575" lon="7.0905">
        <ele>436.9</ele>
        <time>2015-05-10T08:03:49Z</time>
      </trkpt>
      <trkpt lat="47.78581" lon="7.09035">
        <ele>439</ele>
        <time>2015-05-10T08:03:54Z</time>
      </trkpt>
      <trkpt lat="47.78583" lon="7.09029">
        <ele>439</ele>
        <time>2015-05-10T08:03:59Z</time>
      </trkpt>
      <trkpt lat="47.78585" lon="7.09021">
        <ele>439</ele>
        <time>2015-05-10T08:04:02Z</time>
      </trkpt>
      <trkpt lat="47.78586" lon="7.09011">
        <ele>439</ele>
        <time>2015-05-10T08:04:06Z</time>
      </trkpt>
      <trkpt lat="47.78588" lon="7.09004">
        <ele>439</ele>
        <time>2015-05-10T08:04:09Z</time>
      </trkpt>
      <trkpt lat="47.78591" lon="7.08997">
        <ele>439</ele>
        <time>2015-05-10T08:04:13Z</time>
      </trkpt>
      <trkpt lat="47.78598" lon="7.08986">
        <ele>439</ele>
        <time>2015-05-10T08:04:19Z</time>
      </trkpt>
      <trkpt lat="47.78597" lon="7.08971">
        <ele>437.3</ele>
        <time>2015-05-10T08:04:27Z</time>
      </trkpt>
      <trkpt lat="47.786" lon="7.08964">
        <ele>434</ele>
        <time>2015-05-10T08:04:33Z</time>
      </trkpt>
      <trkpt lat="47.78604" lon="7.08962">
        <ele>429.2</ele>
        <time>2015-05-10T08:04:36Z</time>
      </trkpt>
      <trkpt lat="47.78606" lon="7.08955">
        <ele>429</ele>
        <time>2015-05-10T08:04:44Z</time>
      </trkpt>
      <trkpt lat="47.7861" lon="7.08949">
        <ele>428</ele>
        <time>2015-05-10T08:04:53Z</time>
      </trkpt>
      <trkpt lat="47.78611" lon="7.08942">
        <ele>428</ele>
        <time>2015-05-10T08:04:59Z</time>
      </trkpt>
      <trkpt lat="47.78613" lon="7.08935">
        <ele>428</ele>
        <time>2015-05-10T08:05:02Z</time>
      </trkpt>
      <trkpt lat="47.78616" lon="7.08929">
        <ele>428</ele>
        <time>2015-05-10T08:05:06Z</time>
      </trkpt>
      <trkpt lat="47.78617" lon="7.08922">
        <ele>428</ele>
        <time>2015-05-10T08:05:10Z</time>
      </trkpt>
      <trkpt lat="47.78626" lon="7.08909">
        <ele>428.9</ele>
        <time>2015-05-10T08:05:19Z</time>
      </trkpt>
      <trkpt lat="47.78629" lon="7.08905">
        <ele>429</ele>
        <time>2015-05-10T08:05:23Z</time>
      </trkpt>
      <trkpt lat="47.78634" lon="7.08908">
        <ele>429</ele>
        <time>2015-05-10T08:05:34Z</time>
      </trkpt>
      <trkpt lat="47.78637" lon="7.08914">
        <ele>429</ele>
        <time>2015-05-10T08:05:38Z</time>
      </trkpt>
      <trkpt lat="47.78645" lon="7.08921">
        <ele>429</ele>
        <time>2015-05-10T08:05:47Z</time>
      </trkpt>
      <trkpt lat="47.7865" lon="7.08923">
        <ele>429</ele>
        <time>2015-05-10T08:05:54Z</time>
      </trkpt>
      <trkpt lat="47.78654" lon="7.08928">
        <ele>429</ele>
        <time>2015-05-10T08:05:58Z</time>
      </trkpt>
      <trkpt lat="47.78659" lon="7.08922">
        <ele>425</ele>
        <time>2015-05-10T08:06:05Z</time>
      </trkpt>
      <trkpt lat="47.78661" lon="7.08916">
        <ele>425</ele>
        <time>2015-05-10T08:06:11Z</time>
      </trkpt>
      <trkpt lat="47.78661" lon="7.08909">
        <ele>425</ele>
        <time>2015-05-10T08:06:15Z</time>
      </trkpt>
      <trkpt lat="47.78669" lon="7.08905">
        <ele>425</ele>
        <time>2015-05-10T08:06:27Z</time>
      </trkpt>
      <trkpt lat="47.78672" lon="7.08898">
        <ele>425</ele>
        <time>2015-05-10T08:06:32Z</time>
      </trkpt>
      <trkpt lat="47.78675" lon="7.08885">
        <ele>433.8</ele>
        <time>2015-05-10T08:06:42Z</time>
      </trkpt>
      <trkpt lat="47.78676" lon="7.08878">
        <ele>437.5</ele>
        <time>2015-05-10T08:06:49Z</time>
      </trkpt>
      <trkpt lat="47.78678" lon="7.08872">
        <ele>438.9</ele>
        <time>2015-05-10T08:06:55Z</time>
      </trkpt>
      <trkpt lat="47.78683" lon="7.08871">
        <ele>439</ele>
        <time>2015-05-10T08:07:01Z</time>
      </trkpt>
      <trkpt lat="47.78687" lon="7.08865">
        <ele>439</ele>
        <time>2015-05-10T08:07:06Z</time>
      </trkpt>
      <trkpt lat="47.78692" lon="7.08862">
        <ele>439</ele>
        <time>2015-05-10T08:07:16Z</time>
      </trkpt>
      <trkpt lat="47.78695" lon="7.08867">
        <ele>438</ele>
        <time>2015-05-10T08:07:25Z</time>
      </trkpt>
      <trkpt lat="47.78698" lon="7.0886">
        <ele>438</ele>
        <time>2015-05-10T08:07:31Z</time>
      </trkpt>
      <trkpt lat="47.78697" lon="7.08844">
        <ele>437</ele>
        <time>2015-05-10T08:07:41Z</time>
      </trkpt>
      <trkpt lat="47.78697" lon="7.08836">
        <ele>437</ele>
        <time>2015-05-10T08:07:46Z</time>
      </trkpt>
      <trkpt lat="47.78698" lon="7.08829">
        <ele>437</ele>
        <time>2015-05-10T08:07:50Z</time>
      </trkpt>
      <trkpt lat="47.78702" lon="7.08816">
        <ele>437</ele>
        <time>2015-05-10T08:07:59Z</time>
      </trkpt>
      <trkpt lat="47.78707" lon="7.08812">
        <ele>443.3</ele>
        <time>2015-05-10T08:08:05Z</time>
      </trkpt>
      <trkpt lat="47.78708" lon="7.08804">
        <ele>444.5</ele>
        <time>2015-05-10T08:08:12Z</time>
      </trkpt>
      <trkpt lat="47.7871" lon="7.08797">
        <ele>445</ele>
        <time>2015-05-10T08:08:20Z</time>
      </trkpt>
      <trkpt lat="47.78712" lon="7.08791">
        <ele>445</ele>
        <time>2015-05-10T08:08:28Z</time>
      </trkpt>
      <trkpt lat="47.78716" lon="7.08778">
        <ele>445</ele>
        <time>2015-05-10T08:08:37Z</time>
      </trkpt>
      <trkpt lat="47.78724" lon="7.08771">
        <ele>445.9</ele>
        <time>2015-05-10T08:08:45Z</time>
      </trkpt>
      <trkpt lat="47.78734" lon="7.08768">
        <ele>447</ele>
        <time>2015-05-10T08:08:52Z</time>
      </trkpt>
      <trkpt lat="47.78738" lon="7.08766">
        <ele>448.5</ele>
        <time>2015-05-10T08:08:56Z</time>
      </trkpt>
      <trkpt lat="47.78742" lon="7.08763">
        <ele>451.5</ele>
        <time>2015-05-10T08:09:02Z</time>
      </trkpt>
      <trkpt lat="47.78745" lon="7.08758">
        <ele>453</ele>
        <time>2015-05-10T08:09:10Z</time>
      </trkpt>
      <trkpt lat="47.7875" lon="7.08755">
        <ele>453.7</ele>
        <time>2015-05-10T08:09:17Z</time>
      </trkpt>
      <trkpt lat="47.78756" lon="7.08754">
        <ele>454.5</ele>
        <time>2015-05-10T08:09:23Z</time>
      </trkpt>
      <trkpt lat="47.7876" lon="7.08752">
        <ele>455</ele>
        <time>2015-05-10T08:09:27Z</time>
      </trkpt>
      <trkpt lat="47.7877" lon="7.0875">
        <ele>455</ele>
        <time>2015-05-10T08:09:36Z</time>
      </trkpt>
      <trkpt lat="47.78779" lon="7.08749">
        <ele>455</ele>
        <time>2015-05-10T08:09:47Z</time>
      </trkpt>
      <trkpt lat="47.78784" lon="7.08745">
        <ele>455</ele>
        <time>2015-05-10T08:09:54Z</time>
      </trkpt>
      <trkpt lat="47.78791" lon="7.08737">
        <ele>454</ele>
        <time>2015-05-10T08:10:06Z</time>
      </trkpt>
      <trkpt lat="47.78793" lon="7.0873">
        <ele>454</ele>
        <time>2015-05-10T08:10:12Z</time>
      </trkpt>
      <trkpt lat="47.78796" lon="7.08724">
        <ele>454</ele>
        <time>2015-05-10T08:10:16Z</time>
      </trkpt>
      <trkpt lat="47.78798" lon="7.08717">
        <ele>454</ele>
        <time>2015-05-10T08:10:21Z</time>
      </trkpt>
      <trkpt lat="47.78805" lon="7.08712">
        <ele>454</ele>
        <time>2015-05-10T08:10:29Z</time>
      </trkpt>
      <trkpt lat="47.78809" lon="7.0871">
        <ele>454.8</ele>
        <time>2015-05-10T08:10:41Z</time>
      </trkpt>
      <trkpt lat="47.78813" lon="7.08705">
        <ele>455</ele>
        <time>2015-05-10T08:10:56Z</time>
      </trkpt>
      <trkpt lat="47.78816" lon="7.08698">
        <ele>456.5</ele>
        <time>2015-05-10T08:11:01Z</time>
      </trkpt>
      <trkpt lat="47.7882" lon="7.08693">
        <ele>457.7</ele>
        <time>2015-05-10T08:11:15Z</time>
      </trkpt>
      <trkpt lat="47.78835" lon="7.08695">
        <ele>459</ele>
        <time>2015-05-10T08:11:29Z</time>
      </trkpt>
      <trkpt lat="47.78839" lon="7.08696">
        <ele>463.5</ele>
        <time>2015-05-10T08:11:31Z</time>
      </trkpt>
      <trkpt lat="47.78844" lon="7.08695">
        <ele>463.5</ele>
        <time>2015-05-10T08:11:35Z</time>
      </trkpt>
      <trkpt lat="47.78847" lon="7.08689">
        <ele>468.1</ele>
        <time>2015-05-10T08:11:41Z</time>
      </trkpt>
      <trkpt lat="47.78844" lon="7.08683">
        <ele>469</ele>
        <time>2015-05-10T08:11:44Z</time>
      </trkpt>
      <trkpt lat="47.78845" lon="7.08669">
        <ele>470.9</ele>
        <time>2015-05-10T08:11:52Z</time>
      </trkpt>
      <trkpt lat="47.78844" lon="7.08662">
        <ele>471.9</ele>
        <time>2015-05-10T08:11:57Z</time>
      </trkpt>
      <trkpt lat="47.78847" lon="7.08656">
        <ele>472</ele>
        <time>2015-05-10T08:12:00Z</time>
      </trkpt>
      <trkpt lat="47.78851" lon="7.08654">
        <ele>472</ele>
        <time>2015-05-10T08:12:06Z</time>
      </trkpt>
      <trkpt lat="47.78858" lon="7.08643">
        <ele>472</ele>
        <time>2015-05-10T08:12:17Z</time>
      </trkpt>
      <trkpt lat="47.78863" lon="7.08638">
        <ele>471.5</ele>
        <time>2015-05-10T08:12:24Z</time>
      </trkpt>
      <trkpt lat="47.78866" lon="7.08632">
        <ele>470.1</ele>
        <time>2015-05-10T08:12:28Z</time>
      </trkpt>
      <trkpt lat="47.78869" lon="7.08627">
        <ele>470</ele>
        <time>2015-05-10T08:12:34Z</time>
      </trkpt>
      <trkpt lat="47.78873" lon="7.08622">
        <ele>469.1</ele>
        <time>2015-05-10T08:12:39Z</time>
      </trkpt>
      <trkpt lat="47.78878" lon="7.08618">
        <ele>469</ele>
        <time>2015-05-10T08:12:44Z</time>
      </trkpt>
      <trkpt lat="47.78879" lon="7.08609">
        <ele>469</ele>
        <time>2015-05-10T08:12:48Z</time>
      </trkpt>
      <trkpt lat="47.78886" lon="7.08602">
        <ele>468</ele>
        <time>2015-05-10T08:12:56Z</time>
      </trkpt>
      <trkpt lat="47.78896" lon="7.08585">
        <ele>467</ele>
        <time>2015-05-10T08:13:12Z</time>
      </trkpt>
      <trkpt lat="47.78901" lon="7.08581">
        <ele>467</ele>
        <time>2015-05-10T08:13:17Z</time>
      </trkpt>
      <trkpt lat="47.78905" lon="7.08576">
        <ele>466.2</ele>
        <time>2015-05-10T08:13:21Z</time>
      </trkpt>
      <trkpt lat="47.78907" lon="7.0857">
        <ele>466.2</ele>
        <time>2015-05-10T08:13:25Z</time>
      </trkpt>
      <trkpt lat="47.78912" lon="7.08565">
        <ele>466</ele>
        <time>2015-05-10T08:13:30Z</time>
      </trkpt>
      <trkpt lat="47.78915" lon="7.08559">
        <ele>466</ele>
        <time>2015-05-10T08:13:35Z</time>
      </trkpt>
      <trkpt lat="47.78918" lon="7.08552">
        <ele>466</ele>
        <time>2015-05-10T08:13:40Z</time>
      </trkpt>
      <trkpt lat="47.78923" lon="7.08547">
        <ele>464</ele>
        <time>2015-05-10T08:13:45Z</time>
      </trkpt>
      <trkpt lat="47.78937" lon="7.08541">
        <ele>464.2</ele>
        <time>2015-05-10T08:13:57Z</time>
      </trkpt>
      <trkpt lat="47.78944" lon="7.08531">
        <ele>465</ele>
        <time>2015-05-10T08:14:05Z</time>
      </trkpt>
      <trkpt lat="47.78944" lon="7.08517">
        <ele>465</ele>
        <time>2015-05-10T08:14:17Z</time>
      </trkpt>
      <trkpt lat="47.7895" lon="7.08512">
        <ele>465</ele>
        <time>2015-05-10T08:14:22Z</time>
      </trkpt>
      <trkpt lat="47.78959" lon="7.08507">
        <ele>466.8</ele>
        <time>2015-05-10T08:14:30Z</time>
      </trkpt>
      <trkpt lat="47.78962" lon="7.085">
        <ele>467.9</ele>
        <time>2015-05-10T08:14:34Z</time>
      </trkpt>
      <trkpt lat="47.78965" lon="7.08495">
        <ele>470.9</ele>
        <time>2015-05-10T08:14:40Z</time>
      </trkpt>
      <trkpt lat="47.78969" lon="7.08489">
        <ele>473.8</ele>
        <time>2015-05-10T08:14:44Z</time>
      </trkpt>
      <trkpt lat="47.78973" lon="7.08486">
        <ele>474</ele>
        <time>2015-05-10T08:14:48Z</time>
      </trkpt>
      <trkpt lat="47.78978" lon="7.08484">
        <ele>474</ele>
        <time>2015-05-10T08:14:52Z</time>
      </trkpt>
      <trkpt lat="47.78985" lon="7.0848">
        <ele>474</ele>
        <time>2015-05-10T08:14:57Z</time>
      </trkpt>
      <trkpt lat="47.78989" lon="7.08477">
        <ele>474</ele>
        <time>2015-05-10T08:15:01Z</time>
      </trkpt>
      <trkpt lat="47.78992" lon="7.0847">
        <ele>474</ele>
        <time>2015-05-10T08:15:06Z</time>
      </trkpt>
      <trkpt lat="47.78985" lon="7.08466">
        <ele>475</ele>
        <time>2015-05-10T08:15:15Z</time>
      </trkpt>
      <trkpt lat="47.78982" lon="7.0846">
        <ele>475</ele>
        <time>2015-05-10T08:15:20Z</time>
      </trkpt>
      <trkpt lat="47.78984" lon="7.08453">
        <ele>475</ele>
        <time>2015-05-10T08:15:25Z</time>
      </trkpt>
      <trkpt lat="47.78986" lon="7.08447">
        <ele>475</ele>
        <time>2015-05-10T08:15:29Z</time>
      </trkpt>
      <trkpt lat="47.7899" lon="7.08433">
        <ele>476</ele>
        <time>2015-05-10T08:15:41Z</time>
      </trkpt>
      <trkpt lat="47.78992" lon="7.08425">
        <ele>476.9</ele>
        <time>2015-05-10T08:15:44Z</time>
      </trkpt>
      <trkpt lat="47.78996" lon="7.08422">
        <ele>476.9</ele>
        <time>2015-05-10T08:15:48Z</time>
      </trkpt>
      <trkpt lat="47.79004" lon="7.08421">
        <ele>477</ele>
        <time>2015-05-10T08:15:54Z</time>
      </trkpt>
      <trkpt lat="47.79009" lon="7.08418">
        <ele>477</ele>
        <time>2015-05-10T08:15:59Z</time>
      </trkpt>
      <trkpt lat="47.79013" lon="7.08414">
        <ele>477</ele>
        <time>2015-05-10T08:16:02Z</time>
      </trkpt>
      <trkpt lat="47.7902" lon="7.08405">
        <ele>477</ele>
        <time>2015-05-10T08:16:10Z</time>
      </trkpt>
      <trkpt lat="47.79025" lon="7.08401">
        <ele>477</ele>
        <time>2015-05-10T08:16:16Z</time>
      </trkpt>
      <trkpt lat="47.79034" lon="7.08396">
        <ele>474</ele>
        <time>2015-05-10T08:16:31Z</time>
      </trkpt>
      <trkpt lat="47.79048" lon="7.084">
        <ele>473</ele>
        <time>2015-05-10T08:16:49Z</time>
      </trkpt>
      <trkpt lat="47.79049" lon="7.08391">
        <ele>472</ele>
        <time>2015-05-10T08:17:30Z</time>
      </trkpt>
      <trkpt lat="47.79048" lon="7.08378">
        <ele>472</ele>
        <time>2015-05-10T08:17:36Z</time>
      </trkpt>
      <trkpt lat="47.79053" lon="7.08374">
        <ele>472</ele>
        <time>2015-05-10T08:17:40Z</time>
      </trkpt>
      <trkpt lat="47.7906" lon="7.08372">
        <ele>472</ele>
        <time>2015-05-10T08:17:47Z</time>
      </trkpt>
      <trkpt lat="47.7906" lon="7.08364">
        <ele>472</ele>
        <time>2015-05-10T08:17:51Z</time>
      </trkpt>
      <trkpt lat="47.79063" lon="7.08347">
        <ele>472</ele>
        <time>2015-05-10T08:17:59Z</time>
      </trkpt>
      <trkpt lat="47.79064" lon="7.08337">
        <ele>472.8</ele>
        <time>2015-05-10T08:18:02Z</time>
      </trkpt>
      <trkpt lat="47.79068" lon="7.08333">
        <ele>473.7</ele>
        <time>2015-05-10T08:18:07Z</time>
      </trkpt>
      <trkpt lat="47.79071" lon="7.08328">
        <ele>474.9</ele>
        <time>2015-05-10T08:18:18Z</time>
      </trkpt>
      <trkpt lat="47.79075" lon="7.08324">
        <ele>475</ele>
        <time>2015-05-10T08:18:25Z</time>
      </trkpt>
      <trkpt lat="47.79085" lon="7.08322">
        <ele>475</ele>
        <time>2015-05-10T08:18:33Z</time>
      </trkpt>
      <trkpt lat="47.79096" lon="7.08313">
        <ele>475</ele>
        <time>2015-05-10T08:18:41Z</time>
      </trkpt>
      <trkpt lat="47.79103" lon="7.08311">
        <ele>475</ele>
        <time>2015-05-10T08:18:44Z</time>
      </trkpt>
      <trkpt lat="47.79107" lon="7.08307">
        <ele>475</ele>
        <time>2015-05-10T08:18:49Z</time>
      </trkpt>
      <trkpt lat="47.79121" lon="7.08302">
        <ele>473</ele>
        <time>2015-05-10T08:19:00Z</time>
      </trkpt>
      <trkpt lat="47.79126" lon="7.083">
        <ele>473</ele>
        <time>2015-05-10T08:19:08Z</time>
      </trkpt>
      <trkpt lat="47.79131" lon="7.08295">
        <ele>473</ele>
        <time>2015-05-10T08:19:15Z</time>
      </trkpt>
      <trkpt lat="47.79136" lon="7.08292">
        <ele>473</ele>
        <time>2015-05-10T08:19:19Z</time>
      </trkpt>
      <trkpt lat="47.79144" lon="7.08285">
        <ele>473</ele>
        <time>2015-05-10T08:19:26Z</time>
      </trkpt>
      <trkpt lat="47.79158" lon="7.08287">
        <ele>474.5</ele>
        <time>2015-05-10T08:19:39Z</time>
      </trkpt>
      <trkpt lat="47.79163" lon="7.0829">
        <ele>475</ele>
        <time>2015-05-10T08:19:44Z</time>
      </trkpt>
      <trkpt lat="47.79168" lon="7.08287">
        <ele>475</ele>
        <time>2015-05-10T08:19:49Z</time>
      </trkpt>
      <trkpt lat="47.79173" lon="7.08286">
        <ele>475</ele>
        <time>2015-05-10T08:19:56Z</time>
      </trkpt>
      <trkpt lat="47.79176" lon="7.08279">
        <ele>473.1</ele>
        <time>2015-05-10T08:20:07Z</time>
      </trkpt>
      <trkpt lat="47.7918" lon="7.08275">
        <ele>472.1</ele>
        <time>2015-05-10T08:20:11Z</time>
      </trkpt>
      <trkpt lat="47.79184" lon="7.08273">
        <ele>471.1</ele>
        <time>2015-05-10T08:20:14Z</time>
      </trkpt>
      <trkpt lat="47.79193" lon="7.08266">
        <ele>471</ele>
        <time>2015-05-10T08:20:22Z</time>
      </trkpt>
      <trkpt lat="47.79198" lon="7.08263">
        <ele>471</ele>
        <time>2015-05-10T08:20:28Z</time>
      </trkpt>
      <trkpt lat="47.79202" lon="7.0826">
        <ele>471</ele>
        <time>2015-05-10T08:20:33Z</time>
      </trkpt>
      <trkpt lat="47.79207" lon="7.08263">
        <ele>471</ele>
        <time>2015-05-10T08:20:37Z</time>
      </trkpt>
      <trkpt lat="47.79214" lon="7.08269">
        <ele>471</ele>
        <time>2015-05-10T08:20:43Z</time>
      </trkpt>
      <trkpt lat="47.79221" lon="7.08258">
        <ele>472</ele>
        <time>2015-05-10T08:20:53Z</time>
      </trkpt>
      <trkpt lat="47.79226" lon="7.08256">
        <ele>472</ele>
        <time>2015-05-10T08:20:55Z</time>
      </trkpt>
      <trkpt lat="47.79231" lon="7.08256">
        <ele>472</ele>
        <time>2015-05-10T08:20:58Z</time>
      </trkpt>
      <trkpt lat="47.79236" lon="7.08253">
        <ele>474</ele>
        <time>2015-05-10T08:21:08Z</time>
      </trkpt>
      <trkpt lat="47.79247" lon="7.08251">
        <ele>476.8</ele>
        <time>2015-05-10T08:21:20Z</time>
      </trkpt>
      <trkpt lat="47.79253" lon="7.08245">
        <ele>477</ele>
        <time>2015-05-10T08:21:25Z</time>
      </trkpt>
      <trkpt lat="47.79257" lon="7.08243">
        <ele>477</ele>
        <time>2015-05-10T08:21:33Z</time>
      </trkpt>
      <trkpt lat="47.79262" lon="7.08245">
        <ele>477</ele>
        <time>2015-05-10T08:21:38Z</time>
      </trkpt>
      <trkpt lat="47.79267" lon="7.08244">
        <ele>477</ele>
        <time>2015-05-10T08:21:41Z</time>
      </trkpt>
      <trkpt lat="47.79271" lon="7.08242">
        <ele>477.5</ele>
        <time>2015-05-10T08:21:45Z</time>
      </trkpt>
      <trkpt lat="47.79276" lon="7.0824">
        <ele>479.7</ele>
        <time>2015-05-10T08:21:53Z</time>
      </trkpt>
      <trkpt lat="47.79283" lon="7.08238">
        <ele>479</ele>
        <time>2015-05-10T08:21:59Z</time>
      </trkpt>
      <trkpt lat="47.79288" lon="7.08234">
        <ele>479</ele>
        <time>2015-05-10T08:22:05Z</time>
      </trkpt>
      <trkpt lat="47.79295" lon="7.08237">
        <ele>477.1</ele>
        <time>2015-05-10T08:22:10Z</time>
      </trkpt>
      <trkpt lat="47.79296" lon="7.08245">
        <ele>477</ele>
        <time>2015-05-10T08:22:18Z</time>
      </trkpt>
      <trkpt lat="47.793" lon="7.08249">
        <ele>477</ele>
        <time>2015-05-10T08:22:24Z</time>
      </trkpt>
      <trkpt lat="47.79305" lon="7.08251">
        <ele>477</ele>
        <time>2015-05-10T08:22:29Z</time>
      </trkpt>
      <trkpt lat="47.7931" lon="7.0825">
        <ele>477</ele>
        <time>2015-05-10T08:22:33Z</time>
      </trkpt>
      <trkpt lat="47.79314" lon="7.08247">
        <ele>477</ele>
        <time>2015-05-10T08:22:38Z</time>
      </trkpt>
      <trkpt lat="47.79319" lon="7.08242">
        <ele>477</ele>
        <time>2015-05-10T08:22:43Z</time>
      </trkpt>
      <trkpt lat="47.79325" lon="7.08238">
        <ele>477</ele>
        <time>2015-05-10T08:22:47Z</time>
      </trkpt>
      <trkpt lat="47.79336" lon="7.08236">
        <ele>476</ele>
        <time>2015-05-10T08:22:54Z</time>
      </trkpt>
      <trkpt lat="47.79343" lon="7.08234">
        <ele>476</ele>
        <time>2015-05-10T08:23:03Z</time>
      </trkpt>
      <trkpt lat="47.79344" lon="7.08227">
        <ele>476</ele>
        <time>2015-05-10T08:23:09Z</time>
      </trkpt>
      <trkpt lat="47.79352" lon="7.0822">
        <ele>476</ele>
        <time>2015-05-10T08:23:20Z</time>
      </trkpt>
      <trkpt lat="47.79361" lon="7.08215">
        <ele>478.8</ele>
        <time>2015-05-10T08:23:28Z</time>
      </trkpt>
      <trkpt lat="47.79364" lon="7.08206">
        <ele>480</ele>
        <time>2015-05-10T08:23:33Z</time>
      </trkpt>
      <trkpt lat="47.79369" lon="7.08201">
        <ele>480</ele>
        <time>2015-05-10T08:23:40Z</time>
      </trkpt>
      <trkpt lat="47.79374" lon="7.082">
        <ele>480</ele>
        <time>2015-05-10T08:23:44Z</time>
      </trkpt>
      <trkpt lat="47.79383" lon="7.08203">
        <ele>480</ele>
        <time>2015-05-10T08:23:52Z</time>
      </trkpt>
      <trkpt lat="47.79387" lon="7.08206">
        <ele>480</ele>
        <time>2015-05-10T08:23:57Z</time>
      </trkpt>
      <trkpt lat="47.79392" lon="7.08208">
        <ele>480</ele>
        <time>2015-05-10T08:24:04Z</time>
      </trkpt>
      <trkpt lat="47.794" lon="7.08215">
        <ele>480</ele>
        <time>2015-05-10T08:24:14Z</time>
      </trkpt>
      <trkpt lat="47.79405" lon="7.08213">
        <ele>479.1</ele>
        <time>2015-05-10T08:24:17Z</time>
      </trkpt>
      <trkpt lat="47.79409" lon="7.08209">
        <ele>479.1</ele>
        <time>2015-05-10T08:24:20Z</time>
      </trkpt>
      <trkpt lat="47.79413" lon="7.08205">
        <ele>479</ele>
        <time>2015-05-10T08:24:25Z</time>
      </trkpt>
      <trkpt lat="47.79427" lon="7.08206">
        <ele>478</ele>
        <time>2015-05-10T08:24:36Z</time>
      </trkpt>
      <trkpt lat="47.79438" lon="7.08204">
        <ele>477</ele>
        <time>2015-05-10T08:24:48Z</time>
      </trkpt>
      <trkpt lat="47.7945" lon="7.08193">
        <ele>477</ele>
        <time>2015-05-10T08:24:59Z</time>
      </trkpt>
      <trkpt lat="47.79456" lon="7.08191">
        <ele>477</ele>
        <time>2015-05-10T08:25:03Z</time>
      </trkpt>
      <trkpt lat="47.79465" lon="7.08189">
        <ele>477.8</ele>
        <time>2015-05-10T08:25:08Z</time>
      </trkpt>
      <trkpt lat="47.79471" lon="7.0819">
        <ele>477.8</ele>
        <time>2015-05-10T08:25:12Z</time>
      </trkpt>
      <trkpt lat="47.7948" lon="7.08187">
        <ele>478</ele>
        <time>2015-05-10T08:25:27Z</time>
      </trkpt>
      <trkpt lat="47.79483" lon="7.08177">
        <ele>479</ele>
        <time>2015-05-10T08:25:37Z</time>
      </trkpt>
      <trkpt lat="47.79485" lon="7.08163">
        <ele>479</ele>
        <time>2015-05-10T08:25:47Z</time>
      </trkpt>
      <trkpt lat="47.79488" lon="7.08157">
        <ele>479.7</ele>
        <time>2015-05-10T08:25:50Z</time>
      </trkpt>
      <trkpt lat="47.79494" lon="7.08145">
        <ele>481</ele>
        <time>2015-05-10T08:25:59Z</time>
      </trkpt>
      <trkpt lat="47.79504" lon="7.08142">
        <ele>481</ele>
        <time>2015-05-10T08:26:06Z</time>
      </trkpt>
      <trkpt lat="47.79505" lon="7.08128">
        <ele>481</ele>
        <time>2015-05-10T08:26:13Z</time>
      </trkpt>
      <trkpt lat="47.79506" lon="7.08122">
        <ele>481</ele>
        <time>2015-05-10T08:26:18Z</time>
      </trkpt>
      <trkpt lat="47.79512" lon="7.08114">
        <ele>481</ele>
        <time>2015-05-10T08:26:25Z</time>
      </trkpt>
      <trkpt lat="47.79513" lon="7.08107">
        <ele>481</ele>
        <time>2015-05-10T08:26:36Z</time>
      </trkpt>
      <trkpt lat="47.79516" lon="7.08101">
        <ele>481</ele>
        <time>2015-05-10T08:26:42Z</time>
      </trkpt>
      <trkpt lat="47.79521" lon="7.08097">
        <ele>481</ele>
        <time>2015-05-10T08:26:51Z</time>
      </trkpt>
      <trkpt lat="47.79524" lon="7.08091">
        <ele>481</ele>
        <time>2015-05-10T08:26:54Z</time>
      </trkpt>
      <trkpt lat="47.79523" lon="7.08081">
        <ele>481.8</ele>
        <time>2015-05-10T08:26:59Z</time>
      </trkpt>
      <trkpt lat="47.79526" lon="7.08076">
        <ele>482.9</ele>
        <time>2015-05-10T08:27:07Z</time>
      </trkpt>
      <trkpt lat="47.79527" lon="7.08054">
        <ele>485.9</ele>
        <time>2015-05-10T08:27:22Z</time>
      </trkpt>
      <trkpt lat="47.79527" lon="7.08047">
        <ele>486</ele>
        <time>2015-05-10T08:27:26Z</time>
      </trkpt>
      <trkpt lat="47.7953" lon="7.08041">
        <ele>487</ele>
        <time>2015-05-10T08:27:32Z</time>
      </trkpt>
      <trkpt lat="47.79537" lon="7.08038">
        <ele>488.5</ele>
        <time>2015-05-10T08:27:36Z</time>
      </trkpt>
      <trkpt lat="47.7954" lon="7.08033">
        <ele>489.2</ele>
        <time>2015-05-10T08:27:41Z</time>
      </trkpt>
      <trkpt lat="47.79538" lon="7.08026">
        <ele>490.9</ele>
        <time>2015-05-10T08:27:48Z</time>
      </trkpt>
      <trkpt lat="47.79537" lon="7.08019">
        <ele>492</ele>
        <time>2015-05-10T08:27:53Z</time>
      </trkpt>
      <trkpt lat="47.7954" lon="7.08001">
        <ele>499</ele>
        <time>2015-05-10T08:28:06Z</time>
      </trkpt>
      <trkpt lat="47.79542" lon="7.07994">
        <ele>500</ele>
        <time>2015-05-10T08:28:10Z</time>
      </trkpt>
      <trkpt lat="47.79546" lon="7.07988">
        <ele>500</ele>
        <time>2015-05-10T08:28:14Z</time>
      </trkpt>
      <trkpt lat="47.79545" lon="7.07978">
        <ele>500.8</ele>
        <time>2015-05-10T08:28:22Z</time>
      </trkpt>
      <trkpt lat="47.79542" lon="7.07972">
        <ele>500.9</ele>
        <time>2015-05-10T08:28:29Z</time>
      </trkpt>
      <trkpt lat="47.79544" lon="7.07965">
        <ele>502.7</ele>
        <time>2015-05-10T08:28:36Z</time>
      </trkpt>
      <trkpt lat="47.79548" lon="7.07961">
        <ele>504</ele>
        <time>2015-05-10T08:28:39Z</time>
      </trkpt>
      <trkpt lat="47.79551" lon="7.07956">
        <ele>505</ele>
        <time>2015-05-10T08:28:44Z</time>
      </trkpt>
      <trkpt lat="47.79551" lon="7.07948">
        <ele>505</ele>
        <time>2015-05-10T08:28:50Z</time>
      </trkpt>
      <trkpt lat="47.79543" lon="7.07942">
        <ele>505.5</ele>
        <time>2015-05-10T08:29:05Z</time>
      </trkpt>
      <trkpt lat="47.79539" lon="7.07929">
        <ele>509.7</ele>
        <time>2015-05-10T08:29:16Z</time>
      </trkpt>
      <trkpt lat="47.79537" lon="7.07923">
        <ele>515.3</ele>
        <time>2015-05-10T08:29:23Z</time>
      </trkpt>
      <trkpt lat="47.79537" lon="7.07913">
        <ele>521.9</ele>
        <time>2015-05-10T08:29:32Z</time>
      </trkpt>
      <trkpt lat="47.79535" lon="7.07906">
        <ele>522.7</ele>
        <time>2015-05-10T08:29:38Z</time>
      </trkpt>
      <trkpt lat="47.79536" lon="7.07885">
        <ele>526.8</ele>
        <time>2015-05-10T08:29:51Z</time>
      </trkpt>
      <trkpt lat="47.79539" lon="7.0788">
        <ele>529.8</ele>
        <time>2015-05-10T08:30:00Z</time>
      </trkpt>
      <trkpt lat="47.79544" lon="7.07877">
        <ele>530.9</ele>
        <time>2015-05-10T08:30:06Z</time>
      </trkpt>
      <trkpt lat="47.79549" lon="7.07875">
        <ele>531.9</ele>
        <time>2015-05-10T08:30:10Z</time>
      </trkpt>
      <trkpt lat="47.79553" lon="7.07878">
        <ele>533.2</ele>
        <time>2015-05-10T08:30:15Z</time>
      </trkpt>
      <trkpt lat="47.79558" lon="7.07879">
        <ele>534</ele>
        <time>2015-05-10T08:30:24Z</time>
      </trkpt>
      <trkpt lat="47.79565" lon="7.07885">
        <ele>534</ele>
        <time>2015-05-10T08:30:35Z</time>
      </trkpt>
      <trkpt lat="47.79568" lon="7.07891">
        <ele>534</ele>
        <time>2015-05-10T08:30:40Z</time>
      </trkpt>
      <trkpt lat="47.7957" lon="7.07884">
        <ele>522</ele>
        <time>2015-05-10T08:31:44Z</time>
      </trkpt>
      <trkpt lat="47.7957" lon="7.07878">
        <ele>522</ele>
        <time>2015-05-10T08:31:55Z</time>
      </trkpt>
      <trkpt lat="47.7957" lon="7.07878">
        <ele>518.9</ele>
        <time>2015-05-10T08:31:56Z</time>
      </trkpt>
      <trkpt lat="47.7957" lon="7.07878">
        <ele>518.9</ele>
        <time>2015-05-10T09:13:16Z</time>
      </trkpt>
      <trkpt lat="47.8021" lon="7.08002">
        <ele>625</ele>
        <time>2015-05-10T09:13:30Z</time>
      </trkpt>
      <trkpt lat="47.80209" lon="7.07994">
        <ele>623</ele>
        <time>2015-05-10T09:13:37Z</time>
      </trkpt>
      <trkpt lat="47.802" lon="7.07988">
        <ele>619.7</ele>
        <time>2015-05-10T09:13:46Z</time>
      </trkpt>
      <trkpt lat="47.80197" lon="7.07984">
        <ele>617.8</ele>
        <time>2015-05-10T09:13:51Z</time>
      </trkpt>
      <trkpt lat="47.80194" lon="7.07978">
        <ele>614.4</ele>
        <time>2015-05-10T09:13:55Z</time>
      </trkpt>
      <trkpt lat="47.80193" lon="7.07958">
        <ele>605.3</ele>
        <time>2015-05-10T09:14:07Z</time>
      </trkpt>
      <trkpt lat="47.80193" lon="7.0795">
        <ele>605</ele>
        <time>2015-05-10T09:14:12Z</time>
      </trkpt>
      <trkpt lat="47.80192" lon="7.07942">
        <ele>605</ele>
        <time>2015-05-10T09:14:17Z</time>
      </trkpt>
      <trkpt lat="47.80189" lon="7.07938">
        <ele>605</ele>
        <time>2015-05-10T09:14:24Z</time>
      </trkpt>
      <trkpt lat="47.80182" lon="7.07937">
        <ele>605</ele>
        <time>2015-05-10T09:14:27Z</time>
      </trkpt>
      <trkpt lat="47.80176" lon="7.07932">
        <ele>605</ele>
        <time>2015-05-10T09:14:32Z</time>
      </trkpt>
      <trkpt lat="47.80173" lon="7.07927">
        <ele>605</ele>
        <time>2015-05-10T09:14:36Z</time>
      </trkpt>
      <trkpt lat="47.80169" lon="7.07926">
        <ele>605</ele>
        <time>2015-05-10T09:14:44Z</time>
      </trkpt>
      <trkpt lat="47.80169" lon="7.07937">
        <ele>605.9</ele>
        <time>2015-05-10T09:14:51Z</time>
      </trkpt>
      <trkpt lat="47.80166" lon="7.07943">
        <ele>606</ele>
        <time>2015-05-10T09:14:56Z</time>
      </trkpt>
      <trkpt lat="47.80166" lon="7.07951">
        <ele>606.7</ele>
        <time>2015-05-10T09:15:01Z</time>
      </trkpt>
      <trkpt lat="47.80172" lon="7.07962">
        <ele>607</ele>
        <time>2015-05-10T09:15:10Z</time>
      </trkpt>
      <trkpt lat="47.80175" lon="7.07968">
        <ele>607.8</ele>
        <time>2015-05-10T09:15:15Z</time>
      </trkpt>
      <trkpt lat="47.80178" lon="7.07973">
        <ele>608</ele>
        <time>2015-05-10T09:15:20Z</time>
      </trkpt>
      <trkpt lat="47.80179" lon="7.07981">
        <ele>608</ele>
        <time>2015-05-10T09:15:25Z</time>
      </trkpt>
      <trkpt lat="47.80177" lon="7.07988">
        <ele>608</ele>
        <time>2015-05-10T09:15:27Z</time>
      </trkpt>
      <trkpt lat="47.80176" lon="7.07996">
        <ele>608</ele>
        <time>2015-05-10T09:15:33Z</time>
      </trkpt>
      <trkpt lat="47.80171" lon="7.08006">
        <ele>608</ele>
        <time>2015-05-10T09:15:42Z</time>
      </trkpt>
      <trkpt lat="47.80172" lon="7.08021">
        <ele>608</ele>
        <time>2015-05-10T09:15:48Z</time>
      </trkpt>
      <trkpt lat="47.80175" lon="7.08026">
        <ele>608</ele>
        <time>2015-05-10T09:15:54Z</time>
      </trkpt>
      <trkpt lat="47.80177" lon="7.0804">
        <ele>609</ele>
        <time>2015-05-10T09:16:10Z</time>
      </trkpt>
      <trkpt lat="47.80176" lon="7.08054">
        <ele>609</ele>
        <time>2015-05-10T09:16:15Z</time>
      </trkpt>
      <trkpt lat="47.80176" lon="7.08062">
        <ele>609.9</ele>
        <time>2015-05-10T09:16:18Z</time>
      </trkpt>
      <trkpt lat="47.80173" lon="7.08068">
        <ele>610.7</ele>
        <time>2015-05-10T09:16:23Z</time>
      </trkpt>
      <trkpt lat="47.80169" lon="7.08073">
        <ele>611</ele>
        <time>2015-05-10T09:16:30Z</time>
      </trkpt>
      <trkpt lat="47.80166" lon="7.08087">
        <ele>612</ele>
        <time>2015-05-10T09:16:38Z</time>
      </trkpt>
      <trkpt lat="47.80164" lon="7.08094">
        <ele>612</ele>
        <time>2015-05-10T09:16:42Z</time>
      </trkpt>
      <trkpt lat="47.80164" lon="7.08113">
        <ele>612</ele>
        <time>2015-05-10T09:16:53Z</time>
      </trkpt>
      <trkpt lat="47.80163" lon="7.08133">
        <ele>612</ele>
        <time>2015-05-10T09:17:03Z</time>
      </trkpt>
      <trkpt lat="47.80164" lon="7.08147">
        <ele>612</ele>
        <time>2015-05-10T09:17:09Z</time>
      </trkpt>
      <trkpt lat="47.80162" lon="7.08153">
        <ele>612</ele>
        <time>2015-05-10T09:17:14Z</time>
      </trkpt>
      <trkpt lat="47.80158" lon="7.08157">
        <ele>612</ele>
        <time>2015-05-10T09:17:21Z</time>
      </trkpt>
      <trkpt lat="47.80157" lon="7.08164">
        <ele>612</ele>
        <time>2015-05-10T09:17:28Z</time>
      </trkpt>
      <trkpt lat="47.80154" lon="7.08178">
        <ele>612</ele>
        <time>2015-05-10T09:17:41Z</time>
      </trkpt>
      <trkpt lat="47.80153" lon="7.08192">
        <ele>612</ele>
        <time>2015-05-10T09:17:51Z</time>
      </trkpt>
      <trkpt lat="47.80149" lon="7.08198">
        <ele>612</ele>
        <time>2015-05-10T09:17:58Z</time>
      </trkpt>
      <trkpt lat="47.80146" lon="7.08206">
        <ele>612</ele>
        <time>2015-05-10T09:18:03Z</time>
      </trkpt>
      <trkpt lat="47.80138" lon="7.08215">
        <ele>612</ele>
        <time>2015-05-10T09:18:11Z</time>
      </trkpt>
      <trkpt lat="47.80134" lon="7.08228">
        <ele>611</ele>
        <time>2015-05-10T09:18:18Z</time>
      </trkpt>
      <trkpt lat="47.80132" lon="7.08236">
        <ele>611</ele>
        <time>2015-05-10T09:18:24Z</time>
      </trkpt>
      <trkpt lat="47.8013" lon="7.08242">
        <ele>611</ele>
        <time>2015-05-10T09:18:29Z</time>
      </trkpt>
      <trkpt lat="47.80124" lon="7.08245">
        <ele>604.1</ele>
        <time>2015-05-10T09:18:36Z</time>
      </trkpt>
      <trkpt lat="47.80126" lon="7.08252">
        <ele>601.2</ele>
        <time>2015-05-10T09:18:42Z</time>
      </trkpt>
      <trkpt lat="47.80123" lon="7.08257">
        <ele>600.3</ele>
        <time>2015-05-10T09:18:48Z</time>
      </trkpt>
      <trkpt lat="47.80124" lon="7.08264">
        <ele>598</ele>
        <time>2015-05-10T09:18:54Z</time>
      </trkpt>
      <trkpt lat="47.80122" lon="7.08272">
        <ele>597.1</ele>
        <time>2015-05-10T09:19:01Z</time>
      </trkpt>
      <trkpt lat="47.80123" lon="7.08279">
        <ele>596.1</ele>
        <time>2015-05-10T09:19:05Z</time>
      </trkpt>
      <trkpt lat="47.8012" lon="7.08295">
        <ele>589.8</ele>
        <time>2015-05-10T09:19:14Z</time>
      </trkpt>
      <trkpt lat="47.8012" lon="7.08309">
        <ele>586.1</ele>
        <time>2015-05-10T09:19:23Z</time>
      </trkpt>
      <trkpt lat="47.80118" lon="7.08321">
        <ele>580.6</ele>
        <time>2015-05-10T09:19:39Z</time>
      </trkpt>
      <trkpt lat="47.80116" lon="7.08336">
        <ele>580</ele>
        <time>2015-05-10T09:19:47Z</time>
      </trkpt>
      <trkpt lat="47.8011" lon="7.0835">
        <ele>579</ele>
        <time>2015-05-10T09:19:55Z</time>
      </trkpt>
      <trkpt lat="47.80108" lon="7.08357">
        <ele>579</ele>
        <time>2015-05-10T09:19:59Z</time>
      </trkpt>
      <trkpt lat="47.80109" lon="7.08366">
        <ele>578.5</ele>
        <time>2015-05-10T09:20:04Z</time>
      </trkpt>
      <trkpt lat="47.80104" lon="7.08365">
        <ele>578.1</ele>
        <time>2015-05-10T09:20:10Z</time>
      </trkpt>
      <trkpt lat="47.801" lon="7.08361">
        <ele>578</ele>
        <time>2015-05-10T09:20:13Z</time>
      </trkpt>
      <trkpt lat="47.80095" lon="7.08349">
        <ele>578</ele>
        <time>2015-05-10T09:20:21Z</time>
      </trkpt>
      <trkpt lat="47.80089" lon="7.08339">
        <ele>578</ele>
        <time>2015-05-10T09:20:27Z</time>
      </trkpt>
      <trkpt lat="47.8009" lon="7.08331">
        <ele>578</ele>
        <time>2015-05-10T09:20:31Z</time>
      </trkpt>
      <trkpt lat="47.80091" lon="7.08317">
        <ele>578</ele>
        <time>2015-05-10T09:20:37Z</time>
      </trkpt>
      <trkpt lat="47.80096" lon="7.08315">
        <ele>578</ele>
        <time>2015-05-10T09:20:41Z</time>
      </trkpt>
      <trkpt lat="47.80097" lon="7.08322">
        <ele>578</ele>
        <time>2015-05-10T09:20:46Z</time>
      </trkpt>
      <trkpt lat="47.80095" lon="7.0833">
        <ele>577.1</ele>
        <time>2015-05-10T09:20:52Z</time>
      </trkpt>
      <trkpt lat="47.80093" lon="7.08337">
        <ele>577</ele>
        <time>2015-05-10T09:20:55Z</time>
      </trkpt>
      <trkpt lat="47.80094" lon="7.08344">
        <ele>576</ele>
        <time>2015-05-10T09:20:59Z</time>
      </trkpt>
      <trkpt lat="47.80092" lon="7.08358">
        <ele>575.5</ele>
        <time>2015-05-10T09:21:09Z</time>
      </trkpt>
      <trkpt lat="47.80093" lon="7.08366">
        <ele>574.1</ele>
        <time>2015-05-10T09:21:13Z</time>
      </trkpt>
      <trkpt lat="47.80091" lon="7.08373">
        <ele>571.5</ele>
        <time>2015-05-10T09:21:17Z</time>
      </trkpt>
      <trkpt lat="47.8009" lon="7.0838">
        <ele>570.1</ele>
        <time>2015-05-10T09:21:22Z</time>
      </trkpt>
      <trkpt lat="47.80086" lon="7.08394">
        <ele>570</ele>
        <time>2015-05-10T09:21:30Z</time>
      </trkpt>
      <trkpt lat="47.80085" lon="7.08402">
        <ele>568.5</ele>
        <time>2015-05-10T09:21:39Z</time>
      </trkpt>
      <trkpt lat="47.80085" lon="7.0841">
        <ele>568</ele>
        <time>2015-05-10T09:21:42Z</time>
      </trkpt>
      <trkpt lat="47.80085" lon="7.0842">
        <ele>567.1</ele>
        <time>2015-05-10T09:21:49Z</time>
      </trkpt>
      <trkpt lat="47.80087" lon="7.08434">
        <ele>567</ele>
        <time>2015-05-10T09:21:56Z</time>
      </trkpt>
      <trkpt lat="47.80084" lon="7.0844">
        <ele>567</ele>
        <time>2015-05-10T09:21:59Z</time>
      </trkpt>
      <trkpt lat="47.80081" lon="7.08447">
        <ele>567</ele>
        <time>2015-05-10T09:22:03Z</time>
      </trkpt>
      <trkpt lat="47.80072" lon="7.0846">
        <ele>566.1</ele>
        <time>2015-05-10T09:22:11Z</time>
      </trkpt>
      <trkpt lat="47.80071" lon="7.08466">
        <ele>566</ele>
        <time>2015-05-10T09:22:15Z</time>
      </trkpt>
      <trkpt lat="47.80071" lon="7.08474">
        <ele>566</ele>
        <time>2015-05-10T09:22:20Z</time>
      </trkpt>
      <trkpt lat="47.80069" lon="7.08482">
        <ele>566</ele>
        <time>2015-05-10T09:22:25Z</time>
      </trkpt>
      <trkpt lat="47.80067" lon="7.08488">
        <ele>565.2</ele>
        <time>2015-05-10T09:22:31Z</time>
      </trkpt>
      <trkpt lat="47.80068" lon="7.08503">
        <ele>565</ele>
        <time>2015-05-10T09:22:40Z</time>
      </trkpt>
      <trkpt lat="47.80071" lon="7.08519">
        <ele>564</ele>
        <time>2015-05-10T09:22:48Z</time>
      </trkpt>
      <trkpt lat="47.80071" lon="7.08533">
        <ele>564</ele>
        <time>2015-05-10T09:22:55Z</time>
      </trkpt>
      <trkpt lat="47.80076" lon="7.08545">
        <ele>564</ele>
        <time>2015-05-10T09:23:02Z</time>
      </trkpt>
      <trkpt lat="47.80079" lon="7.08551">
        <ele>561</ele>
        <time>2015-05-10T09:23:08Z</time>
      </trkpt>
      <trkpt lat="47.80079" lon="7.08563">
        <ele>559</ele>
        <time>2015-05-10T09:23:15Z</time>
      </trkpt>
      <trkpt lat="47.8008" lon="7.0857">
        <ele>559</ele>
        <time>2015-05-10T09:23:18Z</time>
      </trkpt>
      <trkpt lat="47.80083" lon="7.08577">
        <ele>558</ele>
        <time>2015-05-10T09:23:24Z</time>
      </trkpt>
      <trkpt lat="47.80082" lon="7.08584">
        <ele>558</ele>
        <time>2015-05-10T09:23:30Z</time>
      </trkpt>
      <trkpt lat="47.80082" lon="7.08591">
        <ele>557</ele>
        <time>2015-05-10T09:23:35Z</time>
      </trkpt>
      <trkpt lat="47.80085" lon="7.08599">
        <ele>556.1</ele>
        <time>2015-05-10T09:23:40Z</time>
      </trkpt>
      <trkpt lat="47.80085" lon="7.08607">
        <ele>556</ele>
        <time>2015-05-10T09:23:44Z</time>
      </trkpt>
      <trkpt lat="47.80085" lon="7.08614">
        <ele>556</ele>
        <time>2015-05-10T09:23:48Z</time>
      </trkpt>
      <trkpt lat="47.80085" lon="7.0862">
        <ele>555</ele>
        <time>2015-05-10T09:23:53Z</time>
      </trkpt>
      <trkpt lat="47.80087" lon="7.08627">
        <ele>555</ele>
        <time>2015-05-10T09:23:55Z</time>
      </trkpt>
      <trkpt lat="47.80087" lon="7.08634">
        <ele>554</ele>
        <time>2015-05-10T09:23:59Z</time>
      </trkpt>
      <trkpt lat="47.80089" lon="7.08642">
        <ele>553.3</ele>
        <time>2015-05-10T09:24:05Z</time>
      </trkpt>
      <trkpt lat="47.80089" lon="7.08657">
        <ele>551.3</ele>
        <time>2015-05-10T09:24:12Z</time>
      </trkpt>
      <trkpt lat="47.80091" lon="7.08664">
        <ele>551</ele>
        <time>2015-05-10T09:24:15Z</time>
      </trkpt>
      <trkpt lat="47.80093" lon="7.08671">
        <ele>550.5</ele>
        <time>2015-05-10T09:24:20Z</time>
      </trkpt>
      <trkpt lat="47.80091" lon="7.08678">
        <ele>549.1</ele>
        <time>2015-05-10T09:24:24Z</time>
      </trkpt>
      <trkpt lat="47.80094" lon="7.08685">
        <ele>549.1</ele>
        <time>2015-05-10T09:24:29Z</time>
      </trkpt>
      <trkpt lat="47.80095" lon="7.08706">
        <ele>545.5</ele>
        <time>2015-05-10T09:24:42Z</time>
      </trkpt>
      <trkpt lat="47.80097" lon="7.08715">
        <ele>544.1</ele>
        <time>2015-05-10T09:24:44Z</time>
      </trkpt>
      <trkpt lat="47.801" lon="7.08721">
        <ele>544.1</ele>
        <time>2015-05-10T09:24:48Z</time>
      </trkpt>
      <trkpt lat="47.80105" lon="7.08732">
        <ele>544</ele>
        <time>2015-05-10T09:24:54Z</time>
      </trkpt>
      <trkpt lat="47.80108" lon="7.08737">
        <ele>542.2</ele>
        <time>2015-05-10T09:25:00Z</time>
      </trkpt>
      <trkpt lat="47.80112" lon="7.08743">
        <ele>540</ele>
        <time>2015-05-10T09:25:06Z</time>
      </trkpt>
      <trkpt lat="47.80115" lon="7.08748">
        <ele>539</ele>
        <time>2015-05-10T09:25:10Z</time>
      </trkpt>
      <trkpt lat="47.8012" lon="7.08749">
        <ele>538.3</ele>
        <time>2015-05-10T09:25:14Z</time>
      </trkpt>
      <trkpt lat="47.80124" lon="7.08754">
        <ele>538</ele>
        <time>2015-05-10T09:25:16Z</time>
      </trkpt>
      <trkpt lat="47.80126" lon="7.08762">
        <ele>537</ele>
        <time>2015-05-10T09:25:19Z</time>
      </trkpt>
      <trkpt lat="47.80131" lon="7.08766">
        <ele>537</ele>
        <time>2015-05-10T09:25:23Z</time>
      </trkpt>
      <trkpt lat="47.80134" lon="7.08774">
        <ele>535.1</ele>
        <time>2015-05-10T09:25:28Z</time>
      </trkpt>
      <trkpt lat="47.8014" lon="7.08777">
        <ele>533.5</ele>
        <time>2015-05-10T09:25:33Z</time>
      </trkpt>
      <trkpt lat="47.80143" lon="7.08781">
        <ele>533.1</ele>
        <time>2015-05-10T09:25:37Z</time>
      </trkpt>
      <trkpt lat="47.80145" lon="7.08789">
        <ele>532.5</ele>
        <time>2015-05-10T09:25:42Z</time>
      </trkpt>
      <trkpt lat="47.80148" lon="7.08804">
        <ele>531</ele>
        <time>2015-05-10T09:25:53Z</time>
      </trkpt>
      <trkpt lat="47.80152" lon="7.08811">
        <ele>530.5</ele>
        <time>2015-05-10T09:25:56Z</time>
      </trkpt>
      <trkpt lat="47.80157" lon="7.08815">
        <ele>529.1</ele>
        <time>2015-05-10T09:26:01Z</time>
      </trkpt>
      <trkpt lat="47.80165" lon="7.08822">
        <ele>527.5</ele>
        <time>2015-05-10T09:26:11Z</time>
      </trkpt>
      <trkpt lat="47.80171" lon="7.08823">
        <ele>526.3</ele>
        <time>2015-05-10T09:26:15Z</time>
      </trkpt>
      <trkpt lat="47.80174" lon="7.08828">
        <ele>525.3</ele>
        <time>2015-05-10T09:26:21Z</time>
      </trkpt>
      <trkpt lat="47.80179" lon="7.08832">
        <ele>522.1</ele>
        <time>2015-05-10T09:26:26Z</time>
      </trkpt>
      <trkpt lat="47.80188" lon="7.08837">
        <ele>521.3</ele>
        <time>2015-05-10T09:26:37Z</time>
      </trkpt>
      <trkpt lat="47.8019" lon="7.08844">
        <ele>520.5</ele>
        <time>2015-05-10T09:26:45Z</time>
      </trkpt>
      <trkpt lat="47.80193" lon="7.08848">
        <ele>519.3</ele>
        <time>2015-05-10T09:26:48Z</time>
      </trkpt>
      <trkpt lat="47.80198" lon="7.0885">
        <ele>519.3</ele>
        <time>2015-05-10T09:26:51Z</time>
      </trkpt>
      <trkpt lat="47.80202" lon="7.08854">
        <ele>519</ele>
        <time>2015-05-10T09:26:52Z</time>
      </trkpt>
      <trkpt lat="47.80206" lon="7.0886">
        <ele>519</ele>
        <time>2015-05-10T09:26:55Z</time>
      </trkpt>
      <trkpt lat="47.8021" lon="7.08865">
        <ele>517.3</ele>
        <time>2015-05-10T09:27:02Z</time>
      </trkpt>
      <trkpt lat="47.80224" lon="7.08864">
        <ele>516.3</ele>
        <time>2015-05-10T09:27:14Z</time>
      </trkpt>
      <trkpt lat="47.8023" lon="7.08865">
        <ele>515.1</ele>
        <time>2015-05-10T09:27:20Z</time>
      </trkpt>
      <trkpt lat="47.80234" lon="7.08871">
        <ele>515</ele>
        <time>2015-05-10T09:27:29Z</time>
      </trkpt>
      <trkpt lat="47.80242" lon="7.08875">
        <ele>513.1</ele>
        <time>2015-05-10T09:27:41Z</time>
      </trkpt>
      <trkpt lat="47.80251" lon="7.08881">
        <ele>507.1</ele>
        <time>2015-05-10T09:27:48Z</time>
      </trkpt>
      <trkpt lat="47.80259" lon="7.08896">
        <ele>504.1</ele>
        <time>2015-05-10T09:27:56Z</time>
      </trkpt>
      <trkpt lat="47.80263" lon="7.089">
        <ele>504</ele>
        <time>2015-05-10T09:27:59Z</time>
      </trkpt>
      <trkpt lat="47.80269" lon="7.08903">
        <ele>504</ele>
        <time>2015-05-10T09:28:02Z</time>
      </trkpt>
      <trkpt lat="47.80276" lon="7.08912">
        <ele>503.5</ele>
        <time>2015-05-10T09:28:10Z</time>
      </trkpt>
      <trkpt lat="47.80276" lon="7.0892">
        <ele>502</ele>
        <time>2015-05-10T09:28:15Z</time>
      </trkpt>
      <trkpt lat="47.80278" lon="7.08927">
        <ele>501.5</ele>
        <time>2015-05-10T09:28:20Z</time>
      </trkpt>
      <trkpt lat="47.80281" lon="7.08934">
        <ele>500.5</ele>
        <time>2015-05-10T09:28:26Z</time>
      </trkpt>
      <trkpt lat="47.80285" lon="7.08947">
        <ele>500</ele>
        <time>2015-05-10T09:28:34Z</time>
      </trkpt>
      <trkpt lat="47.8029" lon="7.0895">
        <ele>499.1</ele>
        <time>2015-05-10T09:28:38Z</time>
      </trkpt>
      <trkpt lat="47.80298" lon="7.08952">
        <ele>499</ele>
        <time>2015-05-10T09:28:50Z</time>
      </trkpt>
      <trkpt lat="47.80303" lon="7.08949">
        <ele>497.5</ele>
        <time>2015-05-10T09:28:56Z</time>
      </trkpt>
      <trkpt lat="47.80311" lon="7.08956">
        <ele>495</ele>
        <time>2015-05-10T09:29:08Z</time>
      </trkpt>
      <trkpt lat="47.80314" lon="7.08965">
        <ele>495</ele>
        <time>2015-05-10T09:29:12Z</time>
      </trkpt>
      <trkpt lat="47.80318" lon="7.08972">
        <ele>494</ele>
        <time>2015-05-10T09:29:16Z</time>
      </trkpt>
      <trkpt lat="47.80321" lon="7.08979">
        <ele>494</ele>
        <time>2015-05-10T09:29:19Z</time>
      </trkpt>
      <trkpt lat="47.80322" lon="7.08986">
        <ele>494</ele>
        <time>2015-05-10T09:29:23Z</time>
      </trkpt>
      <trkpt lat="47.80323" lon="7.09">
        <ele>493</ele>
        <time>2015-05-10T09:29:29Z</time>
      </trkpt>
      <trkpt lat="47.80329" lon="7.09011">
        <ele>493</ele>
        <time>2015-05-10T09:29:36Z</time>
      </trkpt>
      <trkpt lat="47.80332" lon="7.09015">
        <ele>492</ele>
        <time>2015-05-10T09:29:42Z</time>
      </trkpt>
      <trkpt lat="47.80333" lon="7.09022">
        <ele>492</ele>
        <time>2015-05-10T09:29:48Z</time>
      </trkpt>
      <trkpt lat="47.80336" lon="7.0903">
        <ele>492</ele>
        <time>2015-05-10T09:29:53Z</time>
      </trkpt>
      <trkpt lat="47.80338" lon="7.09044">
        <ele>492</ele>
        <time>2015-05-10T09:30:00Z</time>
      </trkpt>
      <trkpt lat="47.80337" lon="7.09051">
        <ele>491.5</ele>
        <time>2015-05-10T09:30:04Z</time>
      </trkpt>
      <trkpt lat="47.80333" lon="7.09048">
        <ele>491</ele>
        <time>2015-05-10T09:30:09Z</time>
      </trkpt>
      <trkpt lat="47.8033" lon="7.09054">
        <ele>491</ele>
        <time>2015-05-10T09:30:14Z</time>
      </trkpt>
      <trkpt lat="47.80334" lon="7.09067">
        <ele>490</ele>
        <time>2015-05-10T09:30:22Z</time>
      </trkpt>
      <trkpt lat="47.80338" lon="7.0908">
        <ele>490</ele>
        <time>2015-05-10T09:30:30Z</time>
      </trkpt>
      <trkpt lat="47.80339" lon="7.09087">
        <ele>488.5</ele>
        <time>2015-05-10T09:30:34Z</time>
      </trkpt>
      <trkpt lat="47.80341" lon="7.091">
        <ele>485</ele>
        <time>2015-05-10T09:30:38Z</time>
      </trkpt>
      <trkpt lat="47.80343" lon="7.09107">
        <ele>485</ele>
        <time>2015-05-10T09:30:43Z</time>
      </trkpt>
      <trkpt lat="47.80346" lon="7.09114">
        <ele>483.1</ele>
        <time>2015-05-10T09:30:47Z</time>
      </trkpt>
      <trkpt lat="47.80351" lon="7.09116">
        <ele>480.4</ele>
        <time>2015-05-10T09:30:51Z</time>
      </trkpt>
      <trkpt lat="47.80346" lon="7.09117">
        <ele>480.1</ele>
        <time>2015-05-10T09:30:57Z</time>
      </trkpt>
      <trkpt lat="47.80343" lon="7.09111">
        <ele>472.3</ele>
        <time>2015-05-10T09:31:05Z</time>
      </trkpt>
      <trkpt lat="47.80338" lon="7.09108">
        <ele>470.3</ele>
        <time>2015-05-10T09:31:12Z</time>
      </trkpt>
      <trkpt lat="47.80329" lon="7.09102">
        <ele>467.1</ele>
        <time>2015-05-10T09:31:20Z</time>
      </trkpt>
      <trkpt lat="47.80321" lon="7.09097">
        <ele>464.3</ele>
        <time>2015-05-10T09:31:22Z</time>
      </trkpt>
      <trkpt lat="47.80314" lon="7.09096">
        <ele>464.3</ele>
        <time>2015-05-10T09:31:24Z</time>
      </trkpt>
      <trkpt lat="47.80307" lon="7.09094">
        <ele>464.3</ele>
        <time>2015-05-10T09:31:27Z</time>
      </trkpt>
      <trkpt lat="47.80297" lon="7.09094">
        <ele>462.6</ele>
        <time>2015-05-10T09:31:29Z</time>
      </trkpt>
      <trkpt lat="47.80302" lon="7.0909">
        <ele>459.3</ele>
        <time>2015-05-10T09:31:38Z</time>
      </trkpt>
      <trkpt lat="47.80304" lon="7.09082">
        <ele>458.1</ele>
        <time>2015-05-10T09:31:43Z</time>
      </trkpt>
      <trkpt lat="47.80298" lon="7.09061">
        <ele>457</ele>
        <time>2015-05-10T09:31:54Z</time>
      </trkpt>
      <trkpt lat="47.80296" lon="7.09055">
        <ele>456</ele>
        <time>2015-05-10T09:31:58Z</time>
      </trkpt>
      <trkpt lat="47.80292" lon="7.09049">
        <ele>455.1</ele>
        <time>2015-05-10T09:32:02Z</time>
      </trkpt>
      <trkpt lat="47.80288" lon="7.09045">
        <ele>454.3</ele>
        <time>2015-05-10T09:32:06Z</time>
      </trkpt>
      <trkpt lat="47.80283" lon="7.09044">
        <ele>453.1</ele>
        <time>2015-05-10T09:32:13Z</time>
      </trkpt>
      <trkpt lat="47.80279" lon="7.09049">
        <ele>453</ele>
        <time>2015-05-10T09:32:17Z</time>
      </trkpt>
      <trkpt lat="47.80269" lon="7.09056">
        <ele>452.1</ele>
        <time>2015-05-10T09:32:28Z</time>
      </trkpt>
      <trkpt lat="47.8026" lon="7.09063">
        <ele>452</ele>
        <time>2015-05-10T09:32:34Z</time>
      </trkpt>
      <trkpt lat="47.80246" lon="7.0906">
        <ele>452</ele>
        <time>2015-05-10T09:32:43Z</time>
      </trkpt>
      <trkpt lat="47.80241" lon="7.09056">
        <ele>452</ele>
        <time>2015-05-10T09:32:49Z</time>
      </trkpt>
      <trkpt lat="47.80238" lon="7.09061">
        <ele>451</ele>
        <time>2015-05-10T09:32:58Z</time>
      </trkpt>
      <trkpt lat="47.80228" lon="7.09081">
        <ele>450</ele>
        <time>2015-05-10T09:33:19Z</time>
      </trkpt>
      <trkpt lat="47.80219" lon="7.09094">
        <ele>450</ele>
        <time>2015-05-10T09:33:23Z</time>
      </trkpt>
      <trkpt lat="47.80218" lon="7.09079">
        <ele>449.5</ele>
        <time>2015-05-10T09:33:35Z</time>
      </trkpt>
      <trkpt lat="47.80214" lon="7.09075">
        <ele>449</ele>
        <time>2015-05-10T09:33:42Z</time>
      </trkpt>
      <trkpt lat="47.80205" lon="7.09077">
        <ele>448.3</ele>
        <time>2015-05-10T09:33:48Z</time>
      </trkpt>
      <trkpt lat="47.80195" lon="7.09082">
        <ele>445.8</ele>
        <time>2015-05-10T09:34:01Z</time>
      </trkpt>
      <trkpt lat="47.80193" lon="7.0909">
        <ele>444.1</ele>
        <time>2015-05-10T09:34:06Z</time>
      </trkpt>
      <trkpt lat="47.80192" lon="7.09098">
        <ele>444</ele>
        <time>2015-05-10T09:34:10Z</time>
      </trkpt>
      <trkpt lat="47.80185" lon="7.0911">
        <ele>444</ele>
        <time>2015-05-10T09:34:16Z</time>
      </trkpt>
      <trkpt lat="47.80187" lon="7.09123">
        <ele>444</ele>
        <time>2015-05-10T09:34:21Z</time>
      </trkpt>
      <trkpt lat="47.80187" lon="7.09137">
        <ele>444</ele>
        <time>2015-05-10T09:34:28Z</time>
      </trkpt>
      <trkpt lat="47.80185" lon="7.09144">
        <ele>444</ele>
        <time>2015-05-10T09:34:32Z</time>
      </trkpt>
      <trkpt lat="47.80185" lon="7.09151">
        <ele>445</ele>
        <time>2015-05-10T09:34:39Z</time>
      </trkpt>
      <trkpt lat="47.8019" lon="7.09163">
        <ele>445</ele>
        <time>2015-05-10T09:34:47Z</time>
      </trkpt>
      <trkpt lat="47.80191" lon="7.0917">
        <ele>445</ele>
        <time>2015-05-10T09:34:52Z</time>
      </trkpt>
      <trkpt lat="47.80195" lon="7.09174">
        <ele>444.1</ele>
        <time>2015-05-10T09:34:59Z</time>
      </trkpt>
      <trkpt lat="47.80196" lon="7.09182">
        <ele>444</ele>
        <time>2015-05-10T09:35:02Z</time>
      </trkpt>
      <trkpt lat="47.80193" lon="7.09195">
        <ele>443.5</ele>
        <time>2015-05-10T09:35:11Z</time>
      </trkpt>
      <trkpt lat="47.80192" lon="7.09203">
        <ele>443</ele>
        <time>2015-05-10T09:35:17Z</time>
      </trkpt>
      <trkpt lat="47.80192" lon="7.09211">
        <ele>442</ele>
        <time>2015-05-10T09:35:22Z</time>
      </trkpt>
      <trkpt lat="47.80189" lon="7.09218">
        <ele>442</ele>
        <time>2015-05-10T09:35:27Z</time>
      </trkpt>
      <trkpt lat="47.80185" lon="7.09227">
        <ele>442</ele>
        <time>2015-05-10T09:35:32Z</time>
      </trkpt>
      <trkpt lat="47.8018" lon="7.09236">
        <ele>439.8</ele>
        <time>2015-05-10T09:35:37Z</time>
      </trkpt>
      <trkpt lat="47.80179" lon="7.09243">
        <ele>437</ele>
        <time>2015-05-10T09:35:41Z</time>
      </trkpt>
      <trkpt lat="47.80176" lon="7.0925">
        <ele>437</ele>
        <time>2015-05-10T09:35:46Z</time>
      </trkpt>
      <trkpt lat="47.80176" lon="7.09258">
        <ele>437</ele>
        <time>2015-05-10T09:35:50Z</time>
      </trkpt>
      <trkpt lat="47.80174" lon="7.09266">
        <ele>436.1</ele>
        <time>2015-05-10T09:35:55Z</time>
      </trkpt>
      <trkpt lat="47.80176" lon="7.09279">
        <ele>436</ele>
        <time>2015-05-10T09:36:01Z</time>
      </trkpt>
      <trkpt lat="47.80173" lon="7.09285">
        <ele>436</ele>
        <time>2015-05-10T09:36:06Z</time>
      </trkpt>
      <trkpt lat="47.80172" lon="7.09292">
        <ele>436</ele>
        <time>2015-05-10T09:36:09Z</time>
      </trkpt>
      <trkpt lat="47.80169" lon="7.09299">
        <ele>436.8</ele>
        <time>2015-05-10T09:36:13Z</time>
      </trkpt>
      <trkpt lat="47.80164" lon="7.09306">
        <ele>437</ele>
        <time>2015-05-10T09:36:18Z</time>
      </trkpt>
      <trkpt lat="47.80158" lon="7.09318">
        <ele>437</ele>
        <time>2015-05-10T09:36:23Z</time>
      </trkpt>
      <trkpt lat="47.80154" lon="7.09323">
        <ele>437</ele>
        <time>2015-05-10T09:36:30Z</time>
      </trkpt>
      <trkpt lat="47.80149" lon="7.09328">
        <ele>437</ele>
        <time>2015-05-10T09:36:36Z</time>
      </trkpt>
      <trkpt lat="47.80147" lon="7.09335">
        <ele>436.2</ele>
        <time>2015-05-10T09:36:41Z</time>
      </trkpt>
      <trkpt lat="47.80144" lon="7.09341">
        <ele>436</ele>
        <time>2015-05-10T09:36:45Z</time>
      </trkpt>
      <trkpt lat="47.80142" lon="7.09354">
        <ele>437</ele>
        <time>2015-05-10T09:36:54Z</time>
      </trkpt>
      <trkpt lat="47.8014" lon="7.0936">
        <ele>437</ele>
        <time>2015-05-10T09:36:58Z</time>
      </trkpt>
      <trkpt lat="47.80136" lon="7.09365">
        <ele>437</ele>
        <time>2015-05-10T09:37:01Z</time>
      </trkpt>
      <trkpt lat="47.80135" lon="7.09372">
        <ele>434.8</ele>
        <time>2015-05-10T09:37:05Z</time>
      </trkpt>
      <trkpt lat="47.80135" lon="7.0938">
        <ele>434.1</ele>
        <time>2015-05-10T09:37:09Z</time>
      </trkpt>
      <trkpt lat="47.80132" lon="7.09386">
        <ele>434</ele>
        <time>2015-05-10T09:37:13Z</time>
      </trkpt>
      <trkpt lat="47.80129" lon="7.09391">
        <ele>433.3</ele>
        <time>2015-05-10T09:37:17Z</time>
      </trkpt>
      <trkpt lat="47.80128" lon="7.09397">
        <ele>433.3</ele>
        <time>2015-05-10T09:37:20Z</time>
      </trkpt>
      <trkpt lat="47.80125" lon="7.09417">
        <ele>434</ele>
        <time>2015-05-10T09:37:30Z</time>
      </trkpt>
      <trkpt lat="47.80128" lon="7.09426">
        <ele>436.4</ele>
        <time>2015-05-10T09:37:39Z</time>
      </trkpt>
      <trkpt lat="47.80126" lon="7.09441">
        <ele>437</ele>
        <time>2015-05-10T09:37:48Z</time>
      </trkpt>
      <trkpt lat="47.80126" lon="7.09453">
        <ele>439.4</ele>
        <time>2015-05-10T09:37:56Z</time>
      </trkpt>
      <trkpt lat="47.80126" lon="7.0946">
        <ele>440</ele>
        <time>2015-05-10T09:38:04Z</time>
      </trkpt>
      <trkpt lat="47.80123" lon="7.09468">
        <ele>440.9</ele>
        <time>2015-05-10T09:38:07Z</time>
      </trkpt>
      <trkpt lat="47.80118" lon="7.09479">
        <ele>441</ele>
        <time>2015-05-10T09:38:12Z</time>
      </trkpt>
      <trkpt lat="47.80117" lon="7.09486">
        <ele>441.7</ele>
        <time>2015-05-10T09:38:17Z</time>
      </trkpt>
      <trkpt lat="47.80112" lon="7.09498">
        <ele>442.7</ele>
        <time>2015-05-10T09:38:24Z</time>
      </trkpt>
      <trkpt lat="47.80105" lon="7.09507">
        <ele>445.6</ele>
        <time>2015-05-10T09:38:33Z</time>
      </trkpt>
      <trkpt lat="47.80096" lon="7.09513">
        <ele>446</ele>
        <time>2015-05-10T09:38:40Z</time>
      </trkpt>
      <trkpt lat="47.80092" lon="7.09517">
        <ele>446</ele>
        <time>2015-05-10T09:38:43Z</time>
      </trkpt>
      <trkpt lat="47.80089" lon="7.09524">
        <ele>446</ele>
        <time>2015-05-10T09:38:46Z</time>
      </trkpt>
      <trkpt lat="47.8009" lon="7.09537">
        <ele>446</ele>
        <time>2015-05-10T09:38:58Z</time>
      </trkpt>
      <trkpt lat="47.80088" lon="7.09544">
        <ele>446</ele>
        <time>2015-05-10T09:39:04Z</time>
      </trkpt>
      <trkpt lat="47.80083" lon="7.09549">
        <ele>446.9</ele>
        <time>2015-05-10T09:39:07Z</time>
      </trkpt>
      <trkpt lat="47.8008" lon="7.09554">
        <ele>446.9</ele>
        <time>2015-05-10T09:39:10Z</time>
      </trkpt>
      <trkpt lat="47.80074" lon="7.09565">
        <ele>445.5</ele>
        <time>2015-05-10T09:39:21Z</time>
      </trkpt>
      <trkpt lat="47.80068" lon="7.09567">
        <ele>445.3</ele>
        <time>2015-05-10T09:39:27Z</time>
      </trkpt>
      <trkpt lat="47.80059" lon="7.09573">
        <ele>445</ele>
        <time>2015-05-10T09:39:32Z</time>
      </trkpt>
      <trkpt lat="47.80053" lon="7.09581">
        <ele>444.3</ele>
        <time>2015-05-10T09:39:36Z</time>
      </trkpt>
      <trkpt lat="47.80049" lon="7.09585">
        <ele>444.3</ele>
        <time>2015-05-10T09:39:38Z</time>
      </trkpt>
      <trkpt lat="47.80044" lon="7.09588">
        <ele>444</ele>
        <time>2015-05-10T09:39:42Z</time>
      </trkpt>
      <trkpt lat="47.80042" lon="7.09593">
        <ele>444</ele>
        <time>2015-05-10T09:39:45Z</time>
      </trkpt>
      <trkpt lat="47.80038" lon="7.09598">
        <ele>444</ele>
        <time>2015-05-10T09:39:50Z</time>
      </trkpt>
      <trkpt lat="47.80029" lon="7.09599">
        <ele>442.1</ele>
        <time>2015-05-10T09:39:59Z</time>
      </trkpt>
      <trkpt lat="47.80015" lon="7.09605">
        <ele>440</ele>
        <time>2015-05-10T09:40:09Z</time>
      </trkpt>
      <trkpt lat="47.8001" lon="7.09608">
        <ele>440</ele>
        <time>2015-05-10T09:40:13Z</time>
      </trkpt>
      <trkpt lat="47.79996" lon="7.09608">
        <ele>440</ele>
        <time>2015-05-10T09:40:21Z</time>
      </trkpt>
      <trkpt lat="47.79988" lon="7.09603">
        <ele>440</ele>
        <time>2015-05-10T09:40:26Z</time>
      </trkpt>
      <trkpt lat="47.79984" lon="7.09599">
        <ele>439.1</ele>
        <time>2015-05-10T09:40:33Z</time>
      </trkpt>
      <trkpt lat="47.7998" lon="7.09596">
        <ele>438.5</ele>
        <time>2015-05-10T09:40:39Z</time>
      </trkpt>
      <trkpt lat="47.79977" lon="7.0959">
        <ele>438</ele>
        <time>2015-05-10T09:40:43Z</time>
      </trkpt>
      <trkpt lat="47.79971" lon="7.0959">
        <ele>438</ele>
        <time>2015-05-10T09:40:48Z</time>
      </trkpt>
      <trkpt lat="47.79966" lon="7.09592">
        <ele>438</ele>
        <time>2015-05-10T09:40:51Z</time>
      </trkpt>
      <trkpt lat="47.79963" lon="7.09599">
        <ele>438</ele>
        <time>2015-05-10T09:40:57Z</time>
      </trkpt>
      <trkpt lat="47.79957" lon="7.09613">
        <ele>438</ele>
        <time>2015-05-10T09:41:04Z</time>
      </trkpt>
      <trkpt lat="47.79956" lon="7.09621">
        <ele>439</ele>
        <time>2015-05-10T09:41:07Z</time>
      </trkpt>
      <trkpt lat="47.7996" lon="7.09625">
        <ele>439</ele>
        <time>2015-05-10T09:41:12Z</time>
      </trkpt>
      <trkpt lat="47.79962" lon="7.09635">
        <ele>439.5</ele>
        <time>2015-05-10T09:41:22Z</time>
      </trkpt>
      <trkpt lat="47.79961" lon="7.09643">
        <ele>439.5</ele>
        <time>2015-05-10T09:41:23Z</time>
      </trkpt>
      <trkpt lat="47.79958" lon="7.0965">
        <ele>440</ele>
        <time>2015-05-10T09:41:26Z</time>
      </trkpt>
      <trkpt lat="47.79956" lon="7.09656">
        <ele>440</ele>
        <time>2015-05-10T09:41:29Z</time>
      </trkpt>
      <trkpt lat="47.79954" lon="7.09669">
        <ele>441</ele>
        <time>2015-05-10T09:41:38Z</time>
      </trkpt>
      <trkpt lat="47.79952" lon="7.09676">
        <ele>442</ele>
        <time>2015-05-10T09:41:45Z</time>
      </trkpt>
      <trkpt lat="47.7995" lon="7.09683">
        <ele>442.9</ele>
        <time>2015-05-10T09:41:51Z</time>
      </trkpt>
      <trkpt lat="47.79944" lon="7.09696">
        <ele>443.7</ele>
        <time>2015-05-10T09:41:58Z</time>
      </trkpt>
      <trkpt lat="47.79939" lon="7.09706">
        <ele>444</ele>
        <time>2015-05-10T09:42:03Z</time>
      </trkpt>
      <trkpt lat="47.79938" lon="7.09714">
        <ele>444</ele>
        <time>2015-05-10T09:42:07Z</time>
      </trkpt>
      <trkpt lat="47.79939" lon="7.09721">
        <ele>444</ele>
        <time>2015-05-10T09:42:12Z</time>
      </trkpt>
      <trkpt lat="47.79935" lon="7.0973">
        <ele>445</ele>
        <time>2015-05-10T09:42:17Z</time>
      </trkpt>
      <trkpt lat="47.79934" lon="7.09737">
        <ele>445</ele>
        <time>2015-05-10T09:42:22Z</time>
      </trkpt>
      <trkpt lat="47.79929" lon="7.09755">
        <ele>446</ele>
        <time>2015-05-10T09:42:32Z</time>
      </trkpt>
      <trkpt lat="47.79925" lon="7.09761">
        <ele>446</ele>
        <time>2015-05-10T09:42:36Z</time>
      </trkpt>
      <trkpt lat="47.79918" lon="7.09772">
        <ele>445</ele>
        <time>2015-05-10T09:42:45Z</time>
      </trkpt>
      <trkpt lat="47.79913" lon="7.09784">
        <ele>445</ele>
        <time>2015-05-10T09:42:52Z</time>
      </trkpt>
      <trkpt lat="47.79907" lon="7.09796">
        <ele>444</ele>
        <time>2015-05-10T09:43:00Z</time>
      </trkpt>
      <trkpt lat="47.79902" lon="7.09802">
        <ele>443.3</ele>
        <time>2015-05-10T09:43:03Z</time>
      </trkpt>
      <trkpt lat="47.79893" lon="7.0981">
        <ele>443</ele>
        <time>2015-05-10T09:43:09Z</time>
      </trkpt>
      <trkpt lat="47.7989" lon="7.09816">
        <ele>442.1</ele>
        <time>2015-05-10T09:43:13Z</time>
      </trkpt>
      <trkpt lat="47.7989" lon="7.09823">
        <ele>442</ele>
        <time>2015-05-10T09:43:17Z</time>
      </trkpt>
      <trkpt lat="47.79885" lon="7.09824">
        <ele>442</ele>
        <time>2015-05-10T09:43:26Z</time>
      </trkpt>
      <trkpt lat="47.79884" lon="7.09832">
        <ele>442</ele>
        <time>2015-05-10T09:43:30Z</time>
      </trkpt>
      <trkpt lat="47.79882" lon="7.09846">
        <ele>442</ele>
        <time>2015-05-10T09:43:32Z</time>
      </trkpt>
      <trkpt lat="47.79879" lon="7.0986">
        <ele>441.1</ele>
        <time>2015-05-10T09:43:37Z</time>
      </trkpt>
      <trkpt lat="47.79875" lon="7.09873">
        <ele>441</ele>
        <time>2015-05-10T09:43:46Z</time>
      </trkpt>
      <trkpt lat="47.79872" lon="7.09878">
        <ele>441</ele>
        <time>2015-05-10T09:43:50Z</time>
      </trkpt>
      <trkpt lat="47.79868" lon="7.09883">
        <ele>441</ele>
        <time>2015-05-10T09:43:54Z</time>
      </trkpt>
      <trkpt lat="47.79865" lon="7.09888">
        <ele>440.1</ele>
        <time>2015-05-10T09:44:00Z</time>
      </trkpt>
      <trkpt lat="47.79857" lon="7.09901">
        <ele>434.6</ele>
        <time>2015-05-10T09:44:08Z</time>
      </trkpt>
      <trkpt lat="47.7985" lon="7.0991">
        <ele>433.3</ele>
        <time>2015-05-10T09:44:13Z</time>
      </trkpt>
      <trkpt lat="47.79843" lon="7.09919">
        <ele>425.9</ele>
        <time>2015-05-10T09:44:18Z</time>
      </trkpt>
      <trkpt lat="47.79839" lon="7.09932">
        <ele>423.2</ele>
        <time>2015-05-10T09:44:25Z</time>
      </trkpt>
      <trkpt lat="47.79836" lon="7.0994">
        <ele>421.5</ele>
        <time>2015-05-10T09:44:29Z</time>
      </trkpt>
      <trkpt lat="47.79829" lon="7.09946">
        <ele>419</ele>
        <time>2015-05-10T09:44:37Z</time>
      </trkpt>
      <trkpt lat="47.79823" lon="7.09949">
        <ele>419</ele>
        <time>2015-05-10T09:44:44Z</time>
      </trkpt>
      <trkpt lat="47.7981" lon="7.0996">
        <ele>418</ele>
        <time>2015-05-10T09:44:50Z</time>
      </trkpt>
      <trkpt lat="47.79805" lon="7.09964">
        <ele>418</ele>
        <time>2015-05-10T09:44:53Z</time>
      </trkpt>
      <trkpt lat="47.79802" lon="7.0997">
        <ele>418</ele>
        <time>2015-05-10T09:45:02Z</time>
      </trkpt>
      <trkpt lat="47.79804" lon="7.09977">
        <ele>418</ele>
        <time>2015-05-10T09:45:07Z</time>
      </trkpt>
      <trkpt lat="47.79801" lon="7.09983">
        <ele>418</ele>
        <time>2015-05-10T09:45:15Z</time>
      </trkpt>
      <trkpt lat="47.79792" lon="7.09991">
        <ele>417</ele>
        <time>2015-05-10T09:45:22Z</time>
      </trkpt>
      <trkpt lat="47.79786" lon="7.10002">
        <ele>417</ele>
        <time>2015-05-10T09:45:28Z</time>
      </trkpt>
      <trkpt lat="47.79776" lon="7.10016">
        <ele>416</ele>
        <time>2015-05-10T09:45:39Z</time>
      </trkpt>
      <trkpt lat="47.79773" lon="7.10021">
        <ele>416</ele>
        <time>2015-05-10T09:45:41Z</time>
      </trkpt>
      <trkpt lat="47.7977" lon="7.10027">
        <ele>416</ele>
        <time>2015-05-10T09:45:45Z</time>
      </trkpt>
      <trkpt lat="47.79767" lon="7.10032">
        <ele>413.8</ele>
        <time>2015-05-10T09:45:52Z</time>
      </trkpt>
      <trkpt lat="47.79759" lon="7.10042">
        <ele>412.1</ele>
        <time>2015-05-10T09:45:59Z</time>
      </trkpt>
      <trkpt lat="47.79751" lon="7.1005">
        <ele>411.1</ele>
        <time>2015-05-10T09:46:06Z</time>
      </trkpt>
      <trkpt lat="47.79747" lon="7.10056">
        <ele>409.5</ele>
        <time>2015-05-10T09:46:11Z</time>
      </trkpt>
      <trkpt lat="47.79742" lon="7.10058">
        <ele>409.5</ele>
        <time>2015-05-10T09:46:14Z</time>
      </trkpt>
      <trkpt lat="47.79737" lon="7.10047">
        <ele>403.1</ele>
        <time>2015-05-10T09:46:25Z</time>
      </trkpt>
      <trkpt lat="47.79733" lon="7.10042">
        <ele>402.1</ele>
        <time>2015-05-10T09:46:29Z</time>
      </trkpt>
      <trkpt lat="47.79729" lon="7.10038">
        <ele>402</ele>
        <time>2015-05-10T09:46:33Z</time>
      </trkpt>
      <trkpt lat="47.79728" lon="7.10031">
        <ele>402</ele>
        <time>2015-05-10T09:46:37Z</time>
      </trkpt>
      <trkpt lat="47.79727" lon="7.10024">
        <ele>401</ele>
        <time>2015-05-10T09:46:40Z</time>
      </trkpt>
      <trkpt lat="47.79715" lon="7.10019">
        <ele>401</ele>
        <time>2015-05-10T09:46:48Z</time>
      </trkpt>
      <trkpt lat="47.79707" lon="7.10012">
        <ele>400.1</ele>
        <time>2015-05-10T09:46:56Z</time>
      </trkpt>
      <trkpt lat="47.79704" lon="7.1">
        <ele>400</ele>
        <time>2015-05-10T09:47:02Z</time>
      </trkpt>
      <trkpt lat="47.797" lon="7.09995">
        <ele>399</ele>
        <time>2015-05-10T09:47:07Z</time>
      </trkpt>
      <trkpt lat="47.79698" lon="7.09988">
        <ele>399</ele>
        <time>2015-05-10T09:47:10Z</time>
      </trkpt>
      <trkpt lat="47.79692" lon="7.09978">
        <ele>399</ele>
        <time>2015-05-10T09:47:18Z</time>
      </trkpt>
      <trkpt lat="47.7969" lon="7.09972">
        <ele>399</ele>
        <time>2015-05-10T09:47:22Z</time>
      </trkpt>
      <trkpt lat="47.79684" lon="7.09961">
        <ele>399</ele>
        <time>2015-05-10T09:47:29Z</time>
      </trkpt>
      <trkpt lat="47.79682" lon="7.09955">
        <ele>399</ele>
        <time>2015-05-10T09:47:34Z</time>
      </trkpt>
      <trkpt lat="47.79678" lon="7.0995">
        <ele>399</ele>
        <time>2015-05-10T09:47:40Z</time>
      </trkpt>
      <trkpt lat="47.79674" lon="7.09946">
        <ele>399</ele>
        <time>2015-05-10T09:47:44Z</time>
      </trkpt>
      <trkpt lat="47.7967" lon="7.09946">
        <ele>399</ele>
        <time>2015-05-10T09:47:48Z</time>
      </trkpt>
      <trkpt lat="47.79664" lon="7.09949">
        <ele>399</ele>
        <time>2015-05-10T09:47:52Z</time>
      </trkpt>
      <trkpt lat="47.79659" lon="7.09946">
        <ele>399</ele>
        <time>2015-05-10T09:47:58Z</time>
      </trkpt>
      <trkpt lat="47.79654" lon="7.0993">
        <ele>399.9</ele>
        <time>2015-05-10T09:48:04Z</time>
      </trkpt>
      <trkpt lat="47.79644" lon="7.09916">
        <ele>401</ele>
        <time>2015-05-10T09:48:14Z</time>
      </trkpt>
      <trkpt lat="47.7963" lon="7.09909">
        <ele>401</ele>
        <time>2015-05-10T09:48:24Z</time>
      </trkpt>
      <trkpt lat="47.79626" lon="7.09906">
        <ele>401.5</ele>
        <time>2015-05-10T09:48:27Z</time>
      </trkpt>
      <trkpt lat="47.79622" lon="7.09901">
        <ele>402</ele>
        <time>2015-05-10T09:48:31Z</time>
      </trkpt>
      <trkpt lat="47.79618" lon="7.09897">
        <ele>402</ele>
        <time>2015-05-10T09:48:34Z</time>
      </trkpt>
      <trkpt lat="47.79616" lon="7.0989">
        <ele>402</ele>
        <time>2015-05-10T09:48:37Z</time>
      </trkpt>
      <trkpt lat="47.79613" lon="7.09882">
        <ele>402</ele>
        <time>2015-05-10T09:48:41Z</time>
      </trkpt>
      <trkpt lat="47.79606" lon="7.09872">
        <ele>403</ele>
        <time>2015-05-10T09:48:50Z</time>
      </trkpt>
      <trkpt lat="47.79602" lon="7.09868">
        <ele>403</ele>
        <time>2015-05-10T09:48:53Z</time>
      </trkpt>
      <trkpt lat="47.79592" lon="7.09853">
        <ele>403.9</ele>
        <time>2015-05-10T09:49:02Z</time>
      </trkpt>
      <trkpt lat="47.79588" lon="7.09848">
        <ele>404</ele>
        <time>2015-05-10T09:49:06Z</time>
      </trkpt>
      <trkpt lat="47.79581" lon="7.09841">
        <ele>403.9</ele>
        <time>2015-05-10T09:49:17Z</time>
      </trkpt>
      <trkpt lat="47.7958" lon="7.09834">
        <ele>403.4</ele>
        <time>2015-05-10T09:49:22Z</time>
      </trkpt>
      <trkpt lat="47.79575" lon="7.0983">
        <ele>403</ele>
        <time>2015-05-10T09:49:28Z</time>
      </trkpt>
      <trkpt lat="47.7957" lon="7.09827">
        <ele>402.5</ele>
        <time>2015-05-10T09:49:31Z</time>
      </trkpt>
      <trkpt lat="47.79563" lon="7.09818">
        <ele>400.7</ele>
        <time>2015-05-10T09:49:36Z</time>
      </trkpt>
      <trkpt lat="47.79562" lon="7.09808">
        <ele>400</ele>
        <time>2015-05-10T09:49:41Z</time>
      </trkpt>
      <trkpt lat="47.79557" lon="7.09809">
        <ele>399.5</ele>
        <time>2015-05-10T09:49:46Z</time>
      </trkpt>
      <trkpt lat="47.79548" lon="7.09809">
        <ele>399</ele>
        <time>2015-05-10T09:49:52Z</time>
      </trkpt>
      <trkpt lat="47.79543" lon="7.09811">
        <ele>398</ele>
        <time>2015-05-10T09:49:57Z</time>
      </trkpt>
      <trkpt lat="47.79541" lon="7.0982">
        <ele>397</ele>
        <time>2015-05-10T09:50:01Z</time>
      </trkpt>
      <trkpt lat="47.79537" lon="7.09823">
        <ele>397</ele>
        <time>2015-05-10T09:50:06Z</time>
      </trkpt>
      <trkpt lat="47.79534" lon="7.09832">
        <ele>397</ele>
        <time>2015-05-10T09:50:10Z</time>
      </trkpt>
      <trkpt lat="47.79533" lon="7.09838">
        <ele>397</ele>
        <time>2015-05-10T09:50:14Z</time>
      </trkpt>
      <trkpt lat="47.79536" lon="7.09844">
        <ele>395.5</ele>
        <time>2015-05-10T09:50:20Z</time>
      </trkpt>
      <trkpt lat="47.79535" lon="7.09852">
        <ele>394.1</ele>
        <time>2015-05-10T09:50:27Z</time>
      </trkpt>
      <trkpt lat="47.79538" lon="7.09857">
        <ele>394</ele>
        <time>2015-05-10T09:50:30Z</time>
      </trkpt>
      <trkpt lat="47.79539" lon="7.09865">
        <ele>394</ele>
        <time>2015-05-10T09:50:34Z</time>
      </trkpt>
      <trkpt lat="47.79537" lon="7.09885">
        <ele>392.1</ele>
        <time>2015-05-10T09:50:43Z</time>
      </trkpt>
      <trkpt lat="47.79537" lon="7.09906">
        <ele>391</ele>
        <time>2015-05-10T09:50:52Z</time>
      </trkpt>
      <trkpt lat="47.79536" lon="7.09914">
        <ele>391</ele>
        <time>2015-05-10T09:50:56Z</time>
      </trkpt>
      <trkpt lat="47.79535" lon="7.09925">
        <ele>391</ele>
        <time>2015-05-10T09:51:02Z</time>
      </trkpt>
      <trkpt lat="47.79537" lon="7.09932">
        <ele>391</ele>
        <time>2015-05-10T09:51:07Z</time>
      </trkpt>
      <trkpt lat="47.79537" lon="7.0994">
        <ele>391</ele>
        <time>2015-05-10T09:51:12Z</time>
      </trkpt>
      <trkpt lat="47.79534" lon="7.09945">
        <ele>391</ele>
        <time>2015-05-10T09:51:16Z</time>
      </trkpt>
      <trkpt lat="47.79529" lon="7.09967">
        <ele>391</ele>
        <time>2015-05-10T09:51:24Z</time>
      </trkpt>
      <trkpt lat="47.79528" lon="7.09979">
        <ele>391</ele>
        <time>2015-05-10T09:51:29Z</time>
      </trkpt>
      <trkpt lat="47.79528" lon="7.1">
        <ele>391</ele>
        <time>2015-05-10T09:51:39Z</time>
      </trkpt>
      <trkpt lat="47.79524" lon="7.10006">
        <ele>391</ele>
        <time>2015-05-10T09:51:44Z</time>
      </trkpt>
      <trkpt lat="47.79522" lon="7.10012">
        <ele>391</ele>
        <time>2015-05-10T09:51:48Z</time>
      </trkpt>
      <trkpt lat="47.7952" lon="7.10025">
        <ele>389.5</ele>
        <time>2015-05-10T09:51:55Z</time>
      </trkpt>
      <trkpt lat="47.79518" lon="7.1004">
        <ele>388.1</ele>
        <time>2015-05-10T09:52:02Z</time>
      </trkpt>
      <trkpt lat="47.79518" lon="7.10047">
        <ele>387.5</ele>
        <time>2015-05-10T09:52:05Z</time>
      </trkpt>
      <trkpt lat="47.79517" lon="7.10057">
        <ele>387.5</ele>
        <time>2015-05-10T09:52:09Z</time>
      </trkpt>
      <trkpt lat="47.79517" lon="7.10064">
        <ele>386.1</ele>
        <time>2015-05-10T09:52:13Z</time>
      </trkpt>
      <trkpt lat="47.79511" lon="7.10077">
        <ele>384.5</ele>
        <time>2015-05-10T09:52:22Z</time>
      </trkpt>
      <trkpt lat="47.7951" lon="7.10084">
        <ele>384</ele>
        <time>2015-05-10T09:52:26Z</time>
      </trkpt>
      <trkpt lat="47.79511" lon="7.10098">
        <ele>383.1</ele>
        <time>2015-05-10T09:52:34Z</time>
      </trkpt>
      <trkpt lat="47.79514" lon="7.10105">
        <ele>383</ele>
        <time>2015-05-10T09:52:36Z</time>
      </trkpt>
      <trkpt lat="47.79517" lon="7.1011">
        <ele>383</ele>
        <time>2015-05-10T09:52:40Z</time>
      </trkpt>
      <trkpt lat="47.79523" lon="7.1012">
        <ele>383</ele>
        <time>2015-05-10T09:52:45Z</time>
      </trkpt>
      <trkpt lat="47.7953" lon="7.10132">
        <ele>383</ele>
        <time>2015-05-10T09:52:50Z</time>
      </trkpt>
      <trkpt lat="47.79534" lon="7.10137">
        <ele>383</ele>
        <time>2015-05-10T09:52:53Z</time>
      </trkpt>
      <trkpt lat="47.79537" lon="7.10144">
        <ele>383</ele>
        <time>2015-05-10T09:52:57Z</time>
      </trkpt>
      <trkpt lat="47.7954" lon="7.10149">
        <ele>384</ele>
        <time>2015-05-10T09:53:08Z</time>
      </trkpt>
      <trkpt lat="47.79544" lon="7.10152">
        <ele>384</ele>
        <time>2015-05-10T09:53:12Z</time>
      </trkpt>
      <trkpt lat="47.7955" lon="7.10163">
        <ele>385</ele>
        <time>2015-05-10T09:53:19Z</time>
      </trkpt>
      <trkpt lat="47.79549" lon="7.10173">
        <ele>386</ele>
        <time>2015-05-10T09:53:22Z</time>
      </trkpt>
      <trkpt lat="47.79553" lon="7.1018">
        <ele>386</ele>
        <time>2015-05-10T09:53:25Z</time>
      </trkpt>
      <trkpt lat="47.79552" lon="7.10187">
        <ele>386</ele>
        <time>2015-05-10T09:53:29Z</time>
      </trkpt>
      <trkpt lat="47.79552" lon="7.10194">
        <ele>386.9</ele>
        <time>2015-05-10T09:53:34Z</time>
      </trkpt>
      <trkpt lat="47.79556" lon="7.10198">
        <ele>387</ele>
        <time>2015-05-10T09:53:40Z</time>
      </trkpt>
      <trkpt lat="47.7956" lon="7.10204">
        <ele>387.9</ele>
        <time>2015-05-10T09:53:45Z</time>
      </trkpt>
      <trkpt lat="47.79561" lon="7.10211">
        <ele>388</ele>
        <time>2015-05-10T09:53:49Z</time>
      </trkpt>
      <trkpt lat="47.79565" lon="7.10216">
        <ele>388</ele>
        <time>2015-05-10T09:53:55Z</time>
      </trkpt>
      <trkpt lat="47.79564" lon="7.10223">
        <ele>388</ele>
        <time>2015-05-10T09:54:00Z</time>
      </trkpt>
      <trkpt lat="47.79564" lon="7.10237">
        <ele>388</ele>
        <time>2015-05-10T09:54:04Z</time>
      </trkpt>
      <trkpt lat="47.79564" lon="7.10246">
        <ele>387.2</ele>
        <time>2015-05-10T09:54:08Z</time>
      </trkpt>
      <trkpt lat="47.79564" lon="7.10253">
        <ele>387.2</ele>
        <time>2015-05-10T09:54:12Z</time>
      </trkpt>
      <trkpt lat="47.79557" lon="7.10262">
        <ele>387</ele>
        <time>2015-05-10T09:54:21Z</time>
      </trkpt>
      <trkpt lat="47.79553" lon="7.10266">
        <ele>387</ele>
        <time>2015-05-10T09:54:24Z</time>
      </trkpt>
      <trkpt lat="47.79549" lon="7.10279">
        <ele>387</ele>
        <time>2015-05-10T09:54:31Z</time>
      </trkpt>
      <trkpt lat="47.79548" lon="7.10288">
        <ele>387</ele>
        <time>2015-05-10T09:54:34Z</time>
      </trkpt>
      <trkpt lat="47.79549" lon="7.10295">
        <ele>387</ele>
        <time>2015-05-10T09:54:37Z</time>
      </trkpt>
      <trkpt lat="47.79544" lon="7.103">
        <ele>384.2</ele>
        <time>2015-05-10T09:54:41Z</time>
      </trkpt>
      <trkpt lat="47.7954" lon="7.10301">
        <ele>381.5</ele>
        <time>2015-05-10T09:54:44Z</time>
      </trkpt>
      <trkpt lat="47.79534" lon="7.10306">
        <ele>377.7</ele>
        <time>2015-05-10T09:54:51Z</time>
      </trkpt>
      <trkpt lat="47.79529" lon="7.10306">
        <ele>377.7</ele>
        <time>2015-05-10T09:54:55Z</time>
      </trkpt>
      <trkpt lat="47.79523" lon="7.10311">
        <ele>376.1</ele>
        <time>2015-05-10T09:54:59Z</time>
      </trkpt>
      <trkpt lat="47.79518" lon="7.10314">
        <ele>376.1</ele>
        <time>2015-05-10T09:55:03Z</time>
      </trkpt>
      <trkpt lat="47.79509" lon="7.10317">
        <ele>376</ele>
        <time>2015-05-10T09:55:09Z</time>
      </trkpt>
      <trkpt lat="47.79496" lon="7.10326">
        <ele>374.3</ele>
        <time>2015-05-10T09:55:17Z</time>
      </trkpt>
      <trkpt lat="47.79487" lon="7.10335">
        <ele>372.1</ele>
        <time>2015-05-10T09:55:24Z</time>
      </trkpt>
      <trkpt lat="47.79483" lon="7.1034">
        <ele>372</ele>
        <time>2015-05-10T09:55:28Z</time>
      </trkpt>
      <trkpt lat="47.79478" lon="7.10354">
        <ele>371.3</ele>
        <time>2015-05-10T09:55:36Z</time>
      </trkpt>
      <trkpt lat="47.79476" lon="7.10361">
        <ele>371</ele>
        <time>2015-05-10T09:55:40Z</time>
      </trkpt>
      <trkpt lat="47.79473" lon="7.10366">
        <ele>371</ele>
        <time>2015-05-10T09:55:44Z</time>
      </trkpt>
      <trkpt lat="47.79467" lon="7.10368">
        <ele>369.3</ele>
        <time>2015-05-10T09:55:50Z</time>
      </trkpt>
      <trkpt lat="47.79456" lon="7.1038">
        <ele>368</ele>
        <time>2015-05-10T09:56:00Z</time>
      </trkpt>
      <trkpt lat="47.79447" lon="7.10387">
        <ele>367</ele>
        <time>2015-05-10T09:56:09Z</time>
      </trkpt>
      <trkpt lat="47.79441" lon="7.10388">
        <ele>366.1</ele>
        <time>2015-05-10T09:56:17Z</time>
      </trkpt>
      <trkpt lat="47.79437" lon="7.10392">
        <ele>365.5</ele>
        <time>2015-05-10T09:56:22Z</time>
      </trkpt>
      <trkpt lat="47.79432" lon="7.10395">
        <ele>365</ele>
        <time>2015-05-10T09:56:25Z</time>
      </trkpt>
      <trkpt lat="47.79427" lon="7.104">
        <ele>365</ele>
        <time>2015-05-10T09:56:28Z</time>
      </trkpt>
      <trkpt lat="47.79415" lon="7.10411">
        <ele>363.5</ele>
        <time>2015-05-10T09:56:39Z</time>
      </trkpt>
      <trkpt lat="47.79403" lon="7.1042">
        <ele>362</ele>
        <time>2015-05-10T09:56:49Z</time>
      </trkpt>
      <trkpt lat="47.79394" lon="7.10425">
        <ele>361</ele>
        <time>2015-05-10T09:56:58Z</time>
      </trkpt>
      <trkpt lat="47.7939" lon="7.10427">
        <ele>361</ele>
        <time>2015-05-10T09:57:02Z</time>
      </trkpt>
      <trkpt lat="47.79385" lon="7.10428">
        <ele>360</ele>
        <time>2015-05-10T09:57:10Z</time>
      </trkpt>
      <trkpt lat="47.7938" lon="7.10431">
        <ele>360</ele>
        <time>2015-05-10T09:57:15Z</time>
      </trkpt>
      <trkpt lat="47.79373" lon="7.1044">
        <ele>359.2</ele>
        <time>2015-05-10T09:57:20Z</time>
      </trkpt>
      <trkpt lat="47.79369" lon="7.10446">
        <ele>359</ele>
        <time>2015-05-10T09:57:24Z</time>
      </trkpt>
      <trkpt lat="47.79366" lon="7.10453">
        <ele>359</ele>
        <time>2015-05-10T09:57:29Z</time>
      </trkpt>
      <trkpt lat="47.79363" lon="7.1046">
        <ele>358</ele>
        <time>2015-05-10T09:57:35Z</time>
      </trkpt>
      <trkpt lat="47.79359" lon="7.10465">
        <ele>358</ele>
        <time>2015-05-10T09:57:42Z</time>
      </trkpt>
      <trkpt lat="47.79355" lon="7.10469">
        <ele>358</ele>
        <time>2015-05-10T09:57:47Z</time>
      </trkpt>
      <trkpt lat="47.79351" lon="7.10475">
        <ele>358</ele>
        <time>2015-05-10T09:57:51Z</time>
      </trkpt>
      <trkpt lat="47.79344" lon="7.10485">
        <ele>357.1</ele>
        <time>2015-05-10T09:57:58Z</time>
      </trkpt>
      <trkpt lat="47.7934" lon="7.10487">
        <ele>357</ele>
        <time>2015-05-10T09:58:03Z</time>
      </trkpt>
      <trkpt lat="47.79335" lon="7.10488">
        <ele>357</ele>
        <time>2015-05-10T09:58:08Z</time>
      </trkpt>
      <trkpt lat="47.79326" lon="7.10495">
        <ele>356.1</ele>
        <time>2015-05-10T09:58:17Z</time>
      </trkpt>
      <trkpt lat="47.79323" lon="7.10501">
        <ele>356</ele>
        <time>2015-05-10T09:58:20Z</time>
      </trkpt>
      <trkpt lat="47.79317" lon="7.10503">
        <ele>356</ele>
        <time>2015-05-10T09:58:24Z</time>
      </trkpt>
      <trkpt lat="47.79309" lon="7.10507">
        <ele>354.4</ele>
        <time>2015-05-10T09:58:30Z</time>
      </trkpt>
      <trkpt lat="47.79299" lon="7.10511">
        <ele>354</ele>
        <time>2015-05-10T09:58:35Z</time>
      </trkpt>
      <trkpt lat="47.79294" lon="7.10514">
        <ele>353.3</ele>
        <time>2015-05-10T09:58:40Z</time>
      </trkpt>
      <trkpt lat="47.7929" lon="7.1052">
        <ele>353.1</ele>
        <time>2015-05-10T09:58:46Z</time>
      </trkpt>
      <trkpt lat="47.79283" lon="7.10531">
        <ele>353</ele>
        <time>2015-05-10T09:58:54Z</time>
      </trkpt>
      <trkpt lat="47.7928" lon="7.10536">
        <ele>352.2</ele>
        <time>2015-05-10T09:58:58Z</time>
      </trkpt>
      <trkpt lat="47.7928" lon="7.10551">
        <ele>352</ele>
        <time>2015-05-10T09:59:09Z</time>
      </trkpt>
      <trkpt lat="47.79278" lon="7.10558">
        <ele>351</ele>
        <time>2015-05-10T09:59:14Z</time>
      </trkpt>
      <trkpt lat="47.79278" lon="7.10565">
        <ele>351</ele>
        <time>2015-05-10T09:59:18Z</time>
      </trkpt>
      <trkpt lat="47.79275" lon="7.10571">
        <ele>351</ele>
        <time>2015-05-10T09:59:27Z</time>
      </trkpt>
      <trkpt lat="47.79272" lon="7.10578">
        <ele>351</ele>
        <time>2015-05-10T09:59:29Z</time>
      </trkpt>
      <trkpt lat="47.79266" lon="7.10591">
        <ele>350</ele>
        <time>2015-05-10T09:59:34Z</time>
      </trkpt>
      <trkpt lat="47.79268" lon="7.10602">
        <ele>350</ele>
        <time>2015-05-10T09:59:40Z</time>
      </trkpt>
      <trkpt lat="47.79264" lon="7.10605">
        <ele>350</ele>
        <time>2015-05-10T09:59:45Z</time>
      </trkpt>
      <trkpt lat="47.79254" lon="7.10603">
        <ele>350</ele>
        <time>2015-05-10T09:59:52Z</time>
      </trkpt>
      <trkpt lat="47.79249" lon="7.10603">
        <ele>350</ele>
        <time>2015-05-10T09:59:55Z</time>
      </trkpt>
      <trkpt lat="47.79244" lon="7.10604">
        <ele>350</ele>
        <time>2015-05-10T09:59:59Z</time>
      </trkpt>
      <trkpt lat="47.7924" lon="7.10596">
        <ele>350</ele>
        <time>2015-05-10T10:00:04Z</time>
      </trkpt>
      <trkpt lat="47.79235" lon="7.10594">
        <ele>350.1</ele>
        <time>2015-05-10T10:00:10Z</time>
      </trkpt>
      <trkpt lat="47.79231" lon="7.1059">
        <ele>350</ele>
        <time>2015-05-10T10:00:14Z</time>
      </trkpt>
      <trkpt lat="47.79226" lon="7.10594">
        <ele>350</ele>
        <time>2015-05-10T10:00:24Z</time>
      </trkpt>
      <trkpt lat="47.79222" lon="7.106">
        <ele>350</ele>
        <time>2015-05-10T10:00:28Z</time>
      </trkpt>
      <trkpt lat="47.79218" lon="7.10606">
        <ele>350</ele>
        <time>2015-05-10T10:00:31Z</time>
      </trkpt>
      <trkpt lat="47.79218" lon="7.10606">
        <ele>348.7</ele>
        <time>2015-05-10T10:00:31Z</time>
      </trkpt>
      <trkpt lat="47.79218" lon="7.10606">
        <ele>348.7</ele>
        <time>2015-05-10T10:00:33Z</time>
      </trkpt>
    </trkseg>
  </trk>
</gpx>